<?xml version="1.0" encoding="UTF-8" standalone="no" ?>
<gpx xmlns="http://www.topografix.com/GPX/1/1" xmlns:xsi="http://www.w3.org/2001/XMLSchema-instance" xsi:schemaLocation="http://www.topografix.com/GPX/1/1 http://www.topografix.com/GPX/1/1/gpx.xsd" version="1.1" creator="VisuGPX - https://www.visugpx.com">
  <metadata>
    <name>Samedi 22 janvier 2022</name>
  </metadata>
  <trk>
    <name><![CDATA[14141986-ESMPC 220122]]></name>
    <trkseg>
      <trkpt lat="48.58885" lon="1.57396">
        <ele>101</ele>
        <time>2022-01-18T07:54:33Z</time>
      </trkpt>
      <trkpt lat="48.58882" lon="1.57398">
        <ele>101</ele>
        <time>2022-01-18T07:54:34Z</time>
      </trkpt>
      <trkpt lat="48.58876" lon="1.57322">
        <ele>102</ele>
        <time>2022-01-18T07:54:43Z</time>
      </trkpt>
      <trkpt lat="48.58867" lon="1.57284">
        <ele>102</ele>
        <time>2022-01-18T07:54:47Z</time>
      </trkpt>
      <trkpt lat="48.58835" lon="1.57126">
        <ele>101</ele>
        <time>2022-01-18T07:55:07Z</time>
      </trkpt>
      <trkpt lat="48.58836" lon="1.57115">
        <ele>100</ele>
        <time>2022-01-18T07:55:08Z</time>
      </trkpt>
      <trkpt lat="48.58831" lon="1.57106">
        <ele>100</ele>
        <time>2022-01-18T07:55:09Z</time>
      </trkpt>
      <trkpt lat="48.58834" lon="1.57092">
        <ele>100</ele>
        <time>2022-01-18T07:55:11Z</time>
      </trkpt>
      <trkpt lat="48.58902" lon="1.56953">
        <ele>102</ele>
        <time>2022-01-18T07:55:32Z</time>
      </trkpt>
      <trkpt lat="48.58921" lon="1.56901">
        <ele>102</ele>
        <time>2022-01-18T07:55:39Z</time>
      </trkpt>
      <trkpt lat="48.58976" lon="1.5683">
        <ele>102</ele>
        <time>2022-01-18T07:55:51Z</time>
      </trkpt>
      <trkpt lat="48.59037" lon="1.5674">
        <ele>102</ele>
        <time>2022-01-18T07:56:07Z</time>
      </trkpt>
      <trkpt lat="48.5905" lon="1.56754">
        <ele>101</ele>
        <time>2022-01-18T07:56:09Z</time>
      </trkpt>
      <trkpt lat="48.5906" lon="1.56759">
        <ele>101</ele>
        <time>2022-01-18T07:56:11Z</time>
      </trkpt>
      <trkpt lat="48.59072" lon="1.56761">
        <ele>101</ele>
        <time>2022-01-18T07:56:13Z</time>
      </trkpt>
      <trkpt lat="48.59094" lon="1.56762">
        <ele>101</ele>
        <time>2022-01-18T07:56:17Z</time>
      </trkpt>
      <trkpt lat="48.59132" lon="1.56758">
        <ele>101</ele>
        <time>2022-01-18T07:56:24Z</time>
      </trkpt>
      <trkpt lat="48.59202" lon="1.56767">
        <ele>100</ele>
        <time>2022-01-18T07:56:37Z</time>
      </trkpt>
      <trkpt lat="48.59216" lon="1.56765">
        <ele>100</ele>
        <time>2022-01-18T07:56:39Z</time>
      </trkpt>
      <trkpt lat="48.59268" lon="1.56743">
        <ele>100</ele>
        <time>2022-01-18T07:56:49Z</time>
      </trkpt>
      <trkpt lat="48.59295" lon="1.56827">
        <ele>100</ele>
        <time>2022-01-18T07:57:00Z</time>
      </trkpt>
      <trkpt lat="48.59304" lon="1.5684">
        <ele>100</ele>
        <time>2022-01-18T07:57:02Z</time>
      </trkpt>
      <trkpt lat="48.59313" lon="1.56849">
        <ele>100</ele>
        <time>2022-01-18T07:57:04Z</time>
      </trkpt>
      <trkpt lat="48.59362" lon="1.5688">
        <ele>99</ele>
        <time>2022-01-18T07:57:13Z</time>
      </trkpt>
      <trkpt lat="48.59398" lon="1.56912">
        <ele>99</ele>
        <time>2022-01-18T07:57:21Z</time>
      </trkpt>
      <trkpt lat="48.59498" lon="1.56994">
        <ele>98</ele>
        <time>2022-01-18T07:57:41Z</time>
      </trkpt>
      <trkpt lat="48.59517" lon="1.57001">
        <ele>98</ele>
        <time>2022-01-18T07:57:44Z</time>
      </trkpt>
      <trkpt lat="48.59531" lon="1.57002">
        <ele>98</ele>
        <time>2022-01-18T07:57:47Z</time>
      </trkpt>
      <trkpt lat="48.59551" lon="1.56994">
        <ele>99</ele>
        <time>2022-01-18T07:57:51Z</time>
      </trkpt>
      <trkpt lat="48.59695" lon="1.56879">
        <ele>99</ele>
        <time>2022-01-18T07:58:20Z</time>
      </trkpt>
      <trkpt lat="48.59792" lon="1.56774">
        <ele>98</ele>
        <time>2022-01-18T07:58:41Z</time>
      </trkpt>
      <trkpt lat="48.59806" lon="1.56764">
        <ele>98</ele>
        <time>2022-01-18T07:58:44Z</time>
      </trkpt>
      <trkpt lat="48.59816" lon="1.56762">
        <ele>98</ele>
        <time>2022-01-18T07:58:45Z</time>
      </trkpt>
      <trkpt lat="48.59829" lon="1.56767">
        <ele>98</ele>
        <time>2022-01-18T07:58:48Z</time>
      </trkpt>
      <trkpt lat="48.5994" lon="1.5684">
        <ele>100</ele>
        <time>2022-01-18T07:59:09Z</time>
      </trkpt>
      <trkpt lat="48.59957" lon="1.56854">
        <ele>101</ele>
        <time>2022-01-18T07:59:13Z</time>
      </trkpt>
      <trkpt lat="48.59973" lon="1.56865">
        <ele>100</ele>
        <time>2022-01-18T07:59:16Z</time>
      </trkpt>
      <trkpt lat="48.59985" lon="1.56875">
        <ele>100</ele>
        <time>2022-01-18T07:59:18Z</time>
      </trkpt>
      <trkpt lat="48.60006" lon="1.56894">
        <ele>100</ele>
        <time>2022-01-18T07:59:23Z</time>
      </trkpt>
      <trkpt lat="48.60042" lon="1.5703">
        <ele>103</ele>
        <time>2022-01-18T07:59:40Z</time>
      </trkpt>
      <trkpt lat="48.6005" lon="1.57049">
        <ele>104</ele>
        <time>2022-01-18T07:59:43Z</time>
      </trkpt>
      <trkpt lat="48.60059" lon="1.57055">
        <ele>105</ele>
        <time>2022-01-18T07:59:44Z</time>
      </trkpt>
      <trkpt lat="48.6007" lon="1.57055">
        <ele>105</ele>
        <time>2022-01-18T07:59:46Z</time>
      </trkpt>
      <trkpt lat="48.60178" lon="1.57014">
        <ele>105</ele>
        <time>2022-01-18T08:00:06Z</time>
      </trkpt>
      <trkpt lat="48.60223" lon="1.57001">
        <ele>106</ele>
        <time>2022-01-18T08:00:14Z</time>
      </trkpt>
      <trkpt lat="48.60353" lon="1.56979">
        <ele>109</ele>
        <time>2022-01-18T08:00:38Z</time>
      </trkpt>
      <trkpt lat="48.6041" lon="1.56966">
        <ele>109</ele>
        <time>2022-01-18T08:00:48Z</time>
      </trkpt>
      <trkpt lat="48.60585" lon="1.56878">
        <ele>108</ele>
        <time>2022-01-18T08:01:21Z</time>
      </trkpt>
      <trkpt lat="48.60653" lon="1.56851">
        <ele>107</ele>
        <time>2022-01-18T08:01:33Z</time>
      </trkpt>
      <trkpt lat="48.60732" lon="1.56811">
        <ele>105</ele>
        <time>2022-01-18T08:01:48Z</time>
      </trkpt>
      <trkpt lat="48.60767" lon="1.56784">
        <ele>105</ele>
        <time>2022-01-18T08:01:55Z</time>
      </trkpt>
      <trkpt lat="48.60795" lon="1.56758">
        <ele>103</ele>
        <time>2022-01-18T08:02:01Z</time>
      </trkpt>
      <trkpt lat="48.60832" lon="1.56713">
        <ele>102</ele>
        <time>2022-01-18T08:02:09Z</time>
      </trkpt>
      <trkpt lat="48.60864" lon="1.56669">
        <ele>100</ele>
        <time>2022-01-18T08:02:17Z</time>
      </trkpt>
      <trkpt lat="48.60892" lon="1.56647">
        <ele>99</ele>
        <time>2022-01-18T08:02:23Z</time>
      </trkpt>
      <trkpt lat="48.60966" lon="1.56633">
        <ele>99</ele>
        <time>2022-01-18T08:02:36Z</time>
      </trkpt>
      <trkpt lat="48.61005" lon="1.56623">
        <ele>100</ele>
        <time>2022-01-18T08:02:43Z</time>
      </trkpt>
      <trkpt lat="48.61338" lon="1.56496">
        <ele>98</ele>
        <time>2022-01-18T08:03:44Z</time>
      </trkpt>
      <trkpt lat="48.61396" lon="1.56476">
        <ele>99</ele>
        <time>2022-01-18T08:03:55Z</time>
      </trkpt>
      <trkpt lat="48.61431" lon="1.56469">
        <ele>99</ele>
        <time>2022-01-18T08:04:01Z</time>
      </trkpt>
      <trkpt lat="48.6146" lon="1.56465">
        <ele>99</ele>
        <time>2022-01-18T08:04:06Z</time>
      </trkpt>
      <trkpt lat="48.61519" lon="1.56469">
        <ele>101</ele>
        <time>2022-01-18T08:04:16Z</time>
      </trkpt>
      <trkpt lat="48.61566" lon="1.56478">
        <ele>102</ele>
        <time>2022-01-18T08:04:25Z</time>
      </trkpt>
      <trkpt lat="48.61615" lon="1.56478">
        <ele>103</ele>
        <time>2022-01-18T08:04:34Z</time>
      </trkpt>
      <trkpt lat="48.61653" lon="1.56486">
        <ele>105</ele>
        <time>2022-01-18T08:04:40Z</time>
      </trkpt>
      <trkpt lat="48.61702" lon="1.56464">
        <ele>106</ele>
        <time>2022-01-18T08:04:50Z</time>
      </trkpt>
      <trkpt lat="48.61899" lon="1.56428">
        <ele>108</ele>
        <time>2022-01-18T08:05:25Z</time>
      </trkpt>
      <trkpt lat="48.61929" lon="1.56424">
        <ele>107</ele>
        <time>2022-01-18T08:05:30Z</time>
      </trkpt>
      <trkpt lat="48.61962" lon="1.56425">
        <ele>106</ele>
        <time>2022-01-18T08:05:36Z</time>
      </trkpt>
      <trkpt lat="48.61978" lon="1.56423">
        <ele>106</ele>
        <time>2022-01-18T08:05:39Z</time>
      </trkpt>
      <trkpt lat="48.61998" lon="1.5641">
        <ele>105</ele>
        <time>2022-01-18T08:05:43Z</time>
      </trkpt>
      <trkpt lat="48.62012" lon="1.56406">
        <ele>104</ele>
        <time>2022-01-18T08:05:45Z</time>
      </trkpt>
      <trkpt lat="48.62027" lon="1.56371">
        <ele>103</ele>
        <time>2022-01-18T08:05:50Z</time>
      </trkpt>
      <trkpt lat="48.62084" lon="1.56264">
        <ele>102</ele>
        <time>2022-01-18T08:06:06Z</time>
      </trkpt>
      <trkpt lat="48.62133" lon="1.56139">
        <ele>100</ele>
        <time>2022-01-18T08:06:24Z</time>
      </trkpt>
      <trkpt lat="48.62147" lon="1.56117">
        <ele>99</ele>
        <time>2022-01-18T08:06:27Z</time>
      </trkpt>
      <trkpt lat="48.62173" lon="1.5608">
        <ele>99</ele>
        <time>2022-01-18T08:06:33Z</time>
      </trkpt>
      <trkpt lat="48.62192" lon="1.56063">
        <ele>98</ele>
        <time>2022-01-18T08:06:37Z</time>
      </trkpt>
      <trkpt lat="48.622" lon="1.56062">
        <ele>98</ele>
        <time>2022-01-18T08:06:39Z</time>
      </trkpt>
      <trkpt lat="48.6222" lon="1.56066">
        <ele>98</ele>
        <time>2022-01-18T08:06:42Z</time>
      </trkpt>
      <trkpt lat="48.62273" lon="1.56097">
        <ele>97</ele>
        <time>2022-01-18T08:06:53Z</time>
      </trkpt>
      <trkpt lat="48.6232" lon="1.56121">
        <ele>98</ele>
        <time>2022-01-18T08:07:01Z</time>
      </trkpt>
      <trkpt lat="48.62324" lon="1.56123">
        <ele>98</ele>
        <time>2022-01-18T08:07:02Z</time>
      </trkpt>
      <trkpt lat="48.62352" lon="1.56136">
        <ele>98</ele>
        <time>2022-01-18T08:07:07Z</time>
      </trkpt>
      <trkpt lat="48.62405" lon="1.56155">
        <ele>98</ele>
        <time>2022-01-18T08:07:17Z</time>
      </trkpt>
      <trkpt lat="48.62423" lon="1.56156">
        <ele>99</ele>
        <time>2022-01-18T08:07:20Z</time>
      </trkpt>
      <trkpt lat="48.62437" lon="1.56151">
        <ele>100</ele>
        <time>2022-01-18T08:07:23Z</time>
      </trkpt>
      <trkpt lat="48.62449" lon="1.56141">
        <ele>101</ele>
        <time>2022-01-18T08:07:25Z</time>
      </trkpt>
      <trkpt lat="48.6246" lon="1.56123">
        <ele>101</ele>
        <time>2022-01-18T08:07:28Z</time>
      </trkpt>
      <trkpt lat="48.62474" lon="1.56086">
        <ele>102</ele>
        <time>2022-01-18T08:07:33Z</time>
      </trkpt>
      <trkpt lat="48.62494" lon="1.56049">
        <ele>102</ele>
        <time>2022-01-18T08:07:39Z</time>
      </trkpt>
      <trkpt lat="48.62522" lon="1.56018">
        <ele>102</ele>
        <time>2022-01-18T08:07:45Z</time>
      </trkpt>
      <trkpt lat="48.6259" lon="1.55971">
        <ele>101</ele>
        <time>2022-01-18T08:07:58Z</time>
      </trkpt>
      <trkpt lat="48.62645" lon="1.55941">
        <ele>100</ele>
        <time>2022-01-18T08:08:09Z</time>
      </trkpt>
      <trkpt lat="48.62684" lon="1.55926">
        <ele>99</ele>
        <time>2022-01-18T08:08:16Z</time>
      </trkpt>
      <trkpt lat="48.62727" lon="1.55912">
        <ele>99</ele>
        <time>2022-01-18T08:08:24Z</time>
      </trkpt>
      <trkpt lat="48.62856" lon="1.55883">
        <ele>99</ele>
        <time>2022-01-18T08:08:47Z</time>
      </trkpt>
      <trkpt lat="48.62898" lon="1.55886">
        <ele>99</ele>
        <time>2022-01-18T08:08:54Z</time>
      </trkpt>
      <trkpt lat="48.62909" lon="1.55878">
        <ele>99</ele>
        <time>2022-01-18T08:08:56Z</time>
      </trkpt>
      <trkpt lat="48.62929" lon="1.55857">
        <ele>99</ele>
        <time>2022-01-18T08:09:01Z</time>
      </trkpt>
      <trkpt lat="48.63216" lon="1.55767">
        <ele>98</ele>
        <time>2022-01-18T08:09:53Z</time>
      </trkpt>
      <trkpt lat="48.63262" lon="1.55762">
        <ele>98</ele>
        <time>2022-01-18T08:10:01Z</time>
      </trkpt>
      <trkpt lat="48.63311" lon="1.55762">
        <ele>98</ele>
        <time>2022-01-18T08:10:10Z</time>
      </trkpt>
      <trkpt lat="48.63355" lon="1.55759">
        <ele>98</ele>
        <time>2022-01-18T08:10:18Z</time>
      </trkpt>
      <trkpt lat="48.63435" lon="1.55748">
        <ele>97</ele>
        <time>2022-01-18T08:10:32Z</time>
      </trkpt>
      <trkpt lat="48.63467" lon="1.55741">
        <ele>97</ele>
        <time>2022-01-18T08:10:38Z</time>
      </trkpt>
      <trkpt lat="48.63551" lon="1.55715">
        <ele>97</ele>
        <time>2022-01-18T08:10:53Z</time>
      </trkpt>
      <trkpt lat="48.63582" lon="1.557">
        <ele>97</ele>
        <time>2022-01-18T08:10:59Z</time>
      </trkpt>
      <trkpt lat="48.63627" lon="1.55672">
        <ele>97</ele>
        <time>2022-01-18T08:11:07Z</time>
      </trkpt>
      <trkpt lat="48.63673" lon="1.55639">
        <ele>96</ele>
        <time>2022-01-18T08:11:16Z</time>
      </trkpt>
      <trkpt lat="48.63725" lon="1.55612">
        <ele>96</ele>
        <time>2022-01-18T08:11:26Z</time>
      </trkpt>
      <trkpt lat="48.63769" lon="1.55577">
        <ele>96</ele>
        <time>2022-01-18T08:11:35Z</time>
      </trkpt>
      <trkpt lat="48.63812" lon="1.55547">
        <ele>96</ele>
        <time>2022-01-18T08:11:44Z</time>
      </trkpt>
      <trkpt lat="48.63854" lon="1.55521">
        <ele>96</ele>
        <time>2022-01-18T08:11:52Z</time>
      </trkpt>
      <trkpt lat="48.63896" lon="1.55483">
        <ele>97</ele>
        <time>2022-01-18T08:12:00Z</time>
      </trkpt>
      <trkpt lat="48.63953" lon="1.5544">
        <ele>97</ele>
        <time>2022-01-18T08:12:12Z</time>
      </trkpt>
      <trkpt lat="48.63965" lon="1.55426">
        <ele>97</ele>
        <time>2022-01-18T08:12:14Z</time>
      </trkpt>
      <trkpt lat="48.6404" lon="1.55378">
        <ele>96</ele>
        <time>2022-01-18T08:12:29Z</time>
      </trkpt>
      <trkpt lat="48.64315" lon="1.55119">
        <ele>94</ele>
        <time>2022-01-18T08:13:26Z</time>
      </trkpt>
      <trkpt lat="48.64383" lon="1.5504">
        <ele>93</ele>
        <time>2022-01-18T08:13:42Z</time>
      </trkpt>
      <trkpt lat="48.64362" lon="1.54991">
        <ele>93</ele>
        <time>2022-01-18T08:13:49Z</time>
      </trkpt>
      <trkpt lat="48.6434" lon="1.54978">
        <ele>93</ele>
        <time>2022-01-18T08:13:53Z</time>
      </trkpt>
      <trkpt lat="48.64322" lon="1.54963">
        <ele>93</ele>
        <time>2022-01-18T08:13:56Z</time>
      </trkpt>
      <trkpt lat="48.64234" lon="1.54773">
        <ele>93</ele>
        <time>2022-01-18T08:14:24Z</time>
      </trkpt>
      <trkpt lat="48.64233" lon="1.54758">
        <ele>93</ele>
        <time>2022-01-18T08:14:26Z</time>
      </trkpt>
      <trkpt lat="48.64236" lon="1.54739">
        <ele>93</ele>
        <time>2022-01-18T08:14:28Z</time>
      </trkpt>
      <trkpt lat="48.6425" lon="1.54707">
        <ele>93</ele>
        <time>2022-01-18T08:14:32Z</time>
      </trkpt>
      <trkpt lat="48.64274" lon="1.54672">
        <ele>93</ele>
        <time>2022-01-18T08:14:38Z</time>
      </trkpt>
      <trkpt lat="48.64346" lon="1.54588">
        <ele>94</ele>
        <time>2022-01-18T08:14:54Z</time>
      </trkpt>
      <trkpt lat="48.64375" lon="1.54539">
        <ele>93</ele>
        <time>2022-01-18T08:15:02Z</time>
      </trkpt>
      <trkpt lat="48.64404" lon="1.5448">
        <ele>92</ele>
        <time>2022-01-18T08:15:11Z</time>
      </trkpt>
      <trkpt lat="48.64445" lon="1.54431">
        <ele>93</ele>
        <time>2022-01-18T08:15:20Z</time>
      </trkpt>
      <trkpt lat="48.64518" lon="1.5436">
        <ele>94</ele>
        <time>2022-01-18T08:15:36Z</time>
      </trkpt>
      <trkpt lat="48.64541" lon="1.54343">
        <ele>94</ele>
        <time>2022-01-18T08:15:40Z</time>
      </trkpt>
      <trkpt lat="48.64566" lon="1.54328">
        <ele>93</ele>
        <time>2022-01-18T08:15:45Z</time>
      </trkpt>
      <trkpt lat="48.64574" lon="1.54318">
        <ele>93</ele>
        <time>2022-01-18T08:15:47Z</time>
      </trkpt>
      <trkpt lat="48.64578" lon="1.54305">
        <ele>93</ele>
        <time>2022-01-18T08:15:48Z</time>
      </trkpt>
      <trkpt lat="48.64579" lon="1.54273">
        <ele>94</ele>
        <time>2022-01-18T08:15:52Z</time>
      </trkpt>
      <trkpt lat="48.6458" lon="1.54227">
        <ele>94</ele>
        <time>2022-01-18T08:15:58Z</time>
      </trkpt>
      <trkpt lat="48.64586" lon="1.54193">
        <ele>95</ele>
        <time>2022-01-18T08:16:02Z</time>
      </trkpt>
      <trkpt lat="48.64599" lon="1.54136">
        <ele>95</ele>
        <time>2022-01-18T08:16:09Z</time>
      </trkpt>
      <trkpt lat="48.64611" lon="1.54104">
        <ele>95</ele>
        <time>2022-01-18T08:16:13Z</time>
      </trkpt>
      <trkpt lat="48.64614" lon="1.54108">
        <ele>95</ele>
        <time>2022-01-18T08:16:14Z</time>
      </trkpt>
      <trkpt lat="48.64617" lon="1.54107">
        <ele>95</ele>
        <time>2022-01-18T08:16:14Z</time>
      </trkpt>
      <trkpt lat="48.64619" lon="1.54104">
        <ele>95</ele>
        <time>2022-01-18T08:16:15Z</time>
      </trkpt>
      <trkpt lat="48.6462" lon="1.54099">
        <ele>95</ele>
        <time>2022-01-18T08:16:16Z</time>
      </trkpt>
      <trkpt lat="48.64616" lon="1.54093">
        <ele>95</ele>
        <time>2022-01-18T08:16:17Z</time>
      </trkpt>
      <trkpt lat="48.64584" lon="1.54049">
        <ele>95</ele>
        <time>2022-01-18T08:16:24Z</time>
      </trkpt>
      <trkpt lat="48.64674" lon="1.53902">
        <ele>95</ele>
        <time>2022-01-18T08:16:48Z</time>
      </trkpt>
      <trkpt lat="48.64683" lon="1.53889">
        <ele>95</ele>
        <time>2022-01-18T08:16:50Z</time>
      </trkpt>
      <trkpt lat="48.64691" lon="1.53883">
        <ele>94</ele>
        <time>2022-01-18T08:16:52Z</time>
      </trkpt>
      <trkpt lat="48.64717" lon="1.53842">
        <ele>94</ele>
        <time>2022-01-18T08:16:58Z</time>
      </trkpt>
      <trkpt lat="48.64779" lon="1.53716">
        <ele>94</ele>
        <time>2022-01-18T08:17:17Z</time>
      </trkpt>
      <trkpt lat="48.64799" lon="1.53661">
        <ele>93</ele>
        <time>2022-01-18T08:17:24Z</time>
      </trkpt>
      <trkpt lat="48.64793" lon="1.53656">
        <ele>94</ele>
        <time>2022-01-18T08:17:25Z</time>
      </trkpt>
      <trkpt lat="48.6479" lon="1.53641">
        <ele>94</ele>
        <time>2022-01-18T08:17:27Z</time>
      </trkpt>
      <trkpt lat="48.648" lon="1.53558">
        <ele>95</ele>
        <time>2022-01-18T08:17:37Z</time>
      </trkpt>
      <trkpt lat="48.64803" lon="1.53481">
        <ele>95</ele>
        <time>2022-01-18T08:17:46Z</time>
      </trkpt>
      <trkpt lat="48.64817" lon="1.53382">
        <ele>96</ele>
        <time>2022-01-18T08:17:58Z</time>
      </trkpt>
      <trkpt lat="48.64822" lon="1.53331">
        <ele>97</ele>
        <time>2022-01-18T08:18:04Z</time>
      </trkpt>
      <trkpt lat="48.6482" lon="1.5332">
        <ele>97</ele>
        <time>2022-01-18T08:18:05Z</time>
      </trkpt>
      <trkpt lat="48.6481" lon="1.53304">
        <ele>97</ele>
        <time>2022-01-18T08:18:08Z</time>
      </trkpt>
      <trkpt lat="48.64801" lon="1.53298">
        <ele>97</ele>
        <time>2022-01-18T08:18:10Z</time>
      </trkpt>
      <trkpt lat="48.64798" lon="1.53289">
        <ele>98</ele>
        <time>2022-01-18T08:18:11Z</time>
      </trkpt>
      <trkpt lat="48.64809" lon="1.53253">
        <ele>98</ele>
        <time>2022-01-18T08:18:16Z</time>
      </trkpt>
      <trkpt lat="48.64818" lon="1.53214">
        <ele>98</ele>
        <time>2022-01-18T08:18:20Z</time>
      </trkpt>
      <trkpt lat="48.64841" lon="1.53075">
        <ele>97</ele>
        <time>2022-01-18T08:18:37Z</time>
      </trkpt>
      <trkpt lat="48.6484" lon="1.53067">
        <ele>96</ele>
        <time>2022-01-18T08:18:38Z</time>
      </trkpt>
      <trkpt lat="48.64835" lon="1.53059">
        <ele>96</ele>
        <time>2022-01-18T08:18:40Z</time>
      </trkpt>
      <trkpt lat="48.64823" lon="1.53047">
        <ele>97</ele>
        <time>2022-01-18T08:18:42Z</time>
      </trkpt>
      <trkpt lat="48.64816" lon="1.53042">
        <ele>97</ele>
        <time>2022-01-18T08:18:44Z</time>
      </trkpt>
      <trkpt lat="48.64806" lon="1.53039">
        <ele>97</ele>
        <time>2022-01-18T08:18:45Z</time>
      </trkpt>
      <trkpt lat="48.64738" lon="1.53011">
        <ele>102</ele>
        <time>2022-01-18T08:18:58Z</time>
      </trkpt>
      <trkpt lat="48.64729" lon="1.53066">
        <ele>104</ele>
        <time>2022-01-18T08:19:05Z</time>
      </trkpt>
      <trkpt lat="48.64729" lon="1.53108">
        <ele>105</ele>
        <time>2022-01-18T08:19:09Z</time>
      </trkpt>
      <trkpt lat="48.64729" lon="1.53066">
        <ele>104</ele>
        <time>2022-01-18T08:19:14Z</time>
      </trkpt>
      <trkpt lat="48.64738" lon="1.53011">
        <ele>102</ele>
        <time>2022-01-18T08:19:21Z</time>
      </trkpt>
      <trkpt lat="48.64806" lon="1.53039">
        <ele>97</ele>
        <time>2022-01-18T08:19:34Z</time>
      </trkpt>
      <trkpt lat="48.64834" lon="1.52906">
        <ele>97</ele>
        <time>2022-01-18T08:19:50Z</time>
      </trkpt>
      <trkpt lat="48.64846" lon="1.52859">
        <ele>96</ele>
        <time>2022-01-18T08:19:56Z</time>
      </trkpt>
      <trkpt lat="48.64866" lon="1.52811">
        <ele>95</ele>
        <time>2022-01-18T08:20:03Z</time>
      </trkpt>
      <trkpt lat="48.64888" lon="1.52779">
        <ele>94</ele>
        <time>2022-01-18T08:20:08Z</time>
      </trkpt>
      <trkpt lat="48.64898" lon="1.52782">
        <ele>94</ele>
        <time>2022-01-18T08:20:10Z</time>
      </trkpt>
      <trkpt lat="48.64907" lon="1.52772">
        <ele>94</ele>
        <time>2022-01-18T08:20:12Z</time>
      </trkpt>
      <trkpt lat="48.64919" lon="1.52765">
        <ele>93</ele>
        <time>2022-01-18T08:20:14Z</time>
      </trkpt>
      <trkpt lat="48.64943" lon="1.52739">
        <ele>93</ele>
        <time>2022-01-18T08:20:19Z</time>
      </trkpt>
      <trkpt lat="48.64987" lon="1.52657">
        <ele>94</ele>
        <time>2022-01-18T08:20:32Z</time>
      </trkpt>
      <trkpt lat="48.6505" lon="1.52554">
        <ele>92</ele>
        <time>2022-01-18T08:20:48Z</time>
      </trkpt>
      <trkpt lat="48.65062" lon="1.52539">
        <ele>92</ele>
        <time>2022-01-18T08:20:51Z</time>
      </trkpt>
      <trkpt lat="48.65174" lon="1.52434">
        <ele>93</ele>
        <time>2022-01-18T08:21:15Z</time>
      </trkpt>
      <trkpt lat="48.6519" lon="1.52412">
        <ele>93</ele>
        <time>2022-01-18T08:21:18Z</time>
      </trkpt>
      <trkpt lat="48.6524" lon="1.52263">
        <ele>92</ele>
        <time>2022-01-18T08:21:38Z</time>
      </trkpt>
      <trkpt lat="48.65246" lon="1.52248">
        <ele>92</ele>
        <time>2022-01-18T08:21:40Z</time>
      </trkpt>
      <trkpt lat="48.65265" lon="1.52231">
        <ele>92</ele>
        <time>2022-01-18T08:21:44Z</time>
      </trkpt>
      <trkpt lat="48.65281" lon="1.52204">
        <ele>93</ele>
        <time>2022-01-18T08:21:48Z</time>
      </trkpt>
      <trkpt lat="48.65287" lon="1.522">
        <ele>93</ele>
        <time>2022-01-18T08:21:49Z</time>
      </trkpt>
      <trkpt lat="48.6529" lon="1.52192">
        <ele>93</ele>
        <time>2022-01-18T08:21:50Z</time>
      </trkpt>
      <trkpt lat="48.65291" lon="1.52187">
        <ele>93</ele>
        <time>2022-01-18T08:21:51Z</time>
      </trkpt>
      <trkpt lat="48.65287" lon="1.52175">
        <ele>93</ele>
        <time>2022-01-18T08:21:53Z</time>
      </trkpt>
      <trkpt lat="48.65283" lon="1.52171">
        <ele>93</ele>
        <time>2022-01-18T08:21:54Z</time>
      </trkpt>
      <trkpt lat="48.65279" lon="1.52146">
        <ele>93</ele>
        <time>2022-01-18T08:21:57Z</time>
      </trkpt>
      <trkpt lat="48.65279" lon="1.52113">
        <ele>92</ele>
        <time>2022-01-18T08:22:00Z</time>
      </trkpt>
      <trkpt lat="48.65271" lon="1.51822">
        <ele>92</ele>
        <time>2022-01-18T08:22:35Z</time>
      </trkpt>
      <trkpt lat="48.65276" lon="1.51436">
        <ele>94</ele>
        <time>2022-01-18T08:23:20Z</time>
      </trkpt>
      <trkpt lat="48.65282" lon="1.5138">
        <ele>95</ele>
        <time>2022-01-18T08:23:27Z</time>
      </trkpt>
      <trkpt lat="48.65292" lon="1.51332">
        <ele>95</ele>
        <time>2022-01-18T08:23:33Z</time>
      </trkpt>
      <trkpt lat="48.65311" lon="1.51265">
        <ele>96</ele>
        <time>2022-01-18T08:23:41Z</time>
      </trkpt>
      <trkpt lat="48.65331" lon="1.51225">
        <ele>96</ele>
        <time>2022-01-18T08:23:47Z</time>
      </trkpt>
      <trkpt lat="48.65356" lon="1.51181">
        <ele>96</ele>
        <time>2022-01-18T08:23:54Z</time>
      </trkpt>
      <trkpt lat="48.65721" lon="1.50357">
        <ele>93</ele>
        <time>2022-01-18T08:25:51Z</time>
      </trkpt>
      <trkpt lat="48.65764" lon="1.50267">
        <ele>93</ele>
        <time>2022-01-18T08:26:04Z</time>
      </trkpt>
      <trkpt lat="48.65787" lon="1.50229">
        <ele>94</ele>
        <time>2022-01-18T08:26:10Z</time>
      </trkpt>
      <trkpt lat="48.65872" lon="1.5011">
        <ele>93</ele>
        <time>2022-01-18T08:26:30Z</time>
      </trkpt>
      <trkpt lat="48.6589" lon="1.50083">
        <ele>93</ele>
        <time>2022-01-18T08:26:35Z</time>
      </trkpt>
      <trkpt lat="48.65927" lon="1.50019">
        <ele>94</ele>
        <time>2022-01-18T08:26:45Z</time>
      </trkpt>
      <trkpt lat="48.65989" lon="1.49904">
        <ele>93</ele>
        <time>2022-01-18T08:27:02Z</time>
      </trkpt>
      <trkpt lat="48.66006" lon="1.49862">
        <ele>94</ele>
        <time>2022-01-18T08:27:08Z</time>
      </trkpt>
      <trkpt lat="48.6602" lon="1.49814">
        <ele>94</ele>
        <time>2022-01-18T08:27:14Z</time>
      </trkpt>
      <trkpt lat="48.66046" lon="1.49693">
        <ele>94</ele>
        <time>2022-01-18T08:27:29Z</time>
      </trkpt>
      <trkpt lat="48.66071" lon="1.49631">
        <ele>95</ele>
        <time>2022-01-18T08:27:38Z</time>
      </trkpt>
      <trkpt lat="48.66107" lon="1.49549">
        <ele>96</ele>
        <time>2022-01-18T08:27:49Z</time>
      </trkpt>
      <trkpt lat="48.66116" lon="1.49522">
        <ele>96</ele>
        <time>2022-01-18T08:27:53Z</time>
      </trkpt>
      <trkpt lat="48.66141" lon="1.4943">
        <ele>96</ele>
        <time>2022-01-18T08:28:04Z</time>
      </trkpt>
      <trkpt lat="48.66165" lon="1.49319">
        <ele>96</ele>
        <time>2022-01-18T08:28:18Z</time>
      </trkpt>
      <trkpt lat="48.66184" lon="1.49256">
        <ele>95</ele>
        <time>2022-01-18T08:28:26Z</time>
      </trkpt>
      <trkpt lat="48.66234" lon="1.49135">
        <ele>93</ele>
        <time>2022-01-18T08:28:43Z</time>
      </trkpt>
      <trkpt lat="48.66283" lon="1.49009">
        <ele>96</ele>
        <time>2022-01-18T08:29:00Z</time>
      </trkpt>
      <trkpt lat="48.66326" lon="1.48894">
        <ele>101</ele>
        <time>2022-01-18T08:29:16Z</time>
      </trkpt>
      <trkpt lat="48.6639" lon="1.48693">
        <ele>107</ele>
        <time>2022-01-18T08:29:42Z</time>
      </trkpt>
      <trkpt lat="48.6642" lon="1.48567">
        <ele>111</ele>
        <time>2022-01-18T08:29:58Z</time>
      </trkpt>
      <trkpt lat="48.66476" lon="1.48306">
        <ele>111</ele>
        <time>2022-01-18T08:30:30Z</time>
      </trkpt>
      <trkpt lat="48.66549" lon="1.48058">
        <ele>109</ele>
        <time>2022-01-18T08:31:02Z</time>
      </trkpt>
      <trkpt lat="48.66571" lon="1.47973">
        <ele>109</ele>
        <time>2022-01-18T08:31:13Z</time>
      </trkpt>
      <trkpt lat="48.66626" lon="1.478">
        <ele>108</ele>
        <time>2022-01-18T08:31:35Z</time>
      </trkpt>
      <trkpt lat="48.66639" lon="1.47771">
        <ele>107</ele>
        <time>2022-01-18T08:31:39Z</time>
      </trkpt>
      <trkpt lat="48.66655" lon="1.47748">
        <ele>105</ele>
        <time>2022-01-18T08:31:43Z</time>
      </trkpt>
      <trkpt lat="48.66709" lon="1.4769">
        <ele>105</ele>
        <time>2022-01-18T08:31:55Z</time>
      </trkpt>
      <trkpt lat="48.66738" lon="1.47653">
        <ele>105</ele>
        <time>2022-01-18T08:32:02Z</time>
      </trkpt>
      <trkpt lat="48.66749" lon="1.47635">
        <ele>105</ele>
        <time>2022-01-18T08:32:05Z</time>
      </trkpt>
      <trkpt lat="48.66761" lon="1.47609">
        <ele>105</ele>
        <time>2022-01-18T08:32:08Z</time>
      </trkpt>
      <trkpt lat="48.66831" lon="1.47411">
        <ele>103</ele>
        <time>2022-01-18T08:32:35Z</time>
      </trkpt>
      <trkpt lat="48.66867" lon="1.47301">
        <ele>101</ele>
        <time>2022-01-18T08:32:49Z</time>
      </trkpt>
      <trkpt lat="48.66891" lon="1.47232">
        <ele>101</ele>
        <time>2022-01-18T08:32:58Z</time>
      </trkpt>
      <trkpt lat="48.66938" lon="1.4712">
        <ele>100</ele>
        <time>2022-01-18T08:33:14Z</time>
      </trkpt>
      <trkpt lat="48.66999" lon="1.46982">
        <ele>97</ele>
        <time>2022-01-18T08:33:33Z</time>
      </trkpt>
      <trkpt lat="48.67008" lon="1.46956">
        <ele>96</ele>
        <time>2022-01-18T08:33:37Z</time>
      </trkpt>
      <trkpt lat="48.67051" lon="1.46788">
        <ele>95</ele>
        <time>2022-01-18T08:33:58Z</time>
      </trkpt>
      <trkpt lat="48.67099" lon="1.4663">
        <ele>94</ele>
        <time>2022-01-18T08:34:19Z</time>
      </trkpt>
      <trkpt lat="48.67118" lon="1.46573">
        <ele>94</ele>
        <time>2022-01-18T08:34:26Z</time>
      </trkpt>
      <trkpt lat="48.67147" lon="1.46505">
        <ele>93</ele>
        <time>2022-01-18T08:34:36Z</time>
      </trkpt>
      <trkpt lat="48.67161" lon="1.46479">
        <ele>93</ele>
        <time>2022-01-18T08:34:40Z</time>
      </trkpt>
      <trkpt lat="48.67224" lon="1.46398">
        <ele>93</ele>
        <time>2022-01-18T08:34:54Z</time>
      </trkpt>
      <trkpt lat="48.67252" lon="1.46341">
        <ele>94</ele>
        <time>2022-01-18T08:35:03Z</time>
      </trkpt>
      <trkpt lat="48.67297" lon="1.46213">
        <ele>94</ele>
        <time>2022-01-18T08:35:20Z</time>
      </trkpt>
      <trkpt lat="48.67332" lon="1.46168">
        <ele>93</ele>
        <time>2022-01-18T08:35:28Z</time>
      </trkpt>
      <trkpt lat="48.6738" lon="1.46113">
        <ele>92</ele>
        <time>2022-01-18T08:35:38Z</time>
      </trkpt>
      <trkpt lat="48.67407" lon="1.46071">
        <ele>92</ele>
        <time>2022-01-18T08:35:45Z</time>
      </trkpt>
      <trkpt lat="48.67397" lon="1.46055">
        <ele>92</ele>
        <time>2022-01-18T08:35:48Z</time>
      </trkpt>
      <trkpt lat="48.6739" lon="1.46036">
        <ele>93</ele>
        <time>2022-01-18T08:35:51Z</time>
      </trkpt>
      <trkpt lat="48.67356" lon="1.45779">
        <ele>98</ele>
        <time>2022-01-18T08:36:21Z</time>
      </trkpt>
      <trkpt lat="48.67343" lon="1.45697">
        <ele>99</ele>
        <time>2022-01-18T08:36:31Z</time>
      </trkpt>
      <trkpt lat="48.67329" lon="1.45655">
        <ele>100</ele>
        <time>2022-01-18T08:36:37Z</time>
      </trkpt>
      <trkpt lat="48.67241" lon="1.4547">
        <ele>104</ele>
        <time>2022-01-18T08:37:04Z</time>
      </trkpt>
      <trkpt lat="48.67225" lon="1.45443">
        <ele>105</ele>
        <time>2022-01-18T08:37:08Z</time>
      </trkpt>
      <trkpt lat="48.67181" lon="1.45387">
        <ele>103</ele>
        <time>2022-01-18T08:37:18Z</time>
      </trkpt>
      <trkpt lat="48.67082" lon="1.45255">
        <ele>111</ele>
        <time>2022-01-18T08:37:41Z</time>
      </trkpt>
      <trkpt lat="48.67045" lon="1.45195">
        <ele>115</ele>
        <time>2022-01-18T08:37:51Z</time>
      </trkpt>
      <trkpt lat="48.6701" lon="1.45052">
        <ele>113</ele>
        <time>2022-01-18T08:38:09Z</time>
      </trkpt>
      <trkpt lat="48.66995" lon="1.44934">
        <ele>113</ele>
        <time>2022-01-18T08:38:23Z</time>
      </trkpt>
      <trkpt lat="48.6699" lon="1.44906">
        <ele>113</ele>
        <time>2022-01-18T08:38:27Z</time>
      </trkpt>
      <trkpt lat="48.66963" lon="1.44826">
        <ele>114</ele>
        <time>2022-01-18T08:38:37Z</time>
      </trkpt>
      <trkpt lat="48.66876" lon="1.44725">
        <ele>115</ele>
        <time>2022-01-18T08:38:57Z</time>
      </trkpt>
      <trkpt lat="48.66811" lon="1.44632">
        <ele>120</ele>
        <time>2022-01-18T08:39:13Z</time>
      </trkpt>
      <trkpt lat="48.66774" lon="1.44569">
        <ele>121</ele>
        <time>2022-01-18T08:39:22Z</time>
      </trkpt>
      <trkpt lat="48.66741" lon="1.44532">
        <ele>121</ele>
        <time>2022-01-18T08:39:30Z</time>
      </trkpt>
      <trkpt lat="48.66718" lon="1.44495">
        <ele>120</ele>
        <time>2022-01-18T08:39:36Z</time>
      </trkpt>
      <trkpt lat="48.66696" lon="1.44451">
        <ele>121</ele>
        <time>2022-01-18T08:39:42Z</time>
      </trkpt>
      <trkpt lat="48.66681" lon="1.44411">
        <ele>121</ele>
        <time>2022-01-18T08:39:48Z</time>
      </trkpt>
      <trkpt lat="48.66656" lon="1.4431">
        <ele>123</ele>
        <time>2022-01-18T08:40:00Z</time>
      </trkpt>
      <trkpt lat="48.66591" lon="1.44135">
        <ele>125</ele>
        <time>2022-01-18T08:40:24Z</time>
      </trkpt>
      <trkpt lat="48.66493" lon="1.43949">
        <ele>128</ele>
        <time>2022-01-18T08:40:52Z</time>
      </trkpt>
      <trkpt lat="48.66428" lon="1.43772">
        <ele>127</ele>
        <time>2022-01-18T08:41:16Z</time>
      </trkpt>
      <trkpt lat="48.6638" lon="1.43663">
        <ele>127</ele>
        <time>2022-01-18T08:41:31Z</time>
      </trkpt>
      <trkpt lat="48.6635" lon="1.43599">
        <ele>129</ele>
        <time>2022-01-18T08:41:40Z</time>
      </trkpt>
      <trkpt lat="48.66132" lon="1.43188">
        <ele>132</ele>
        <time>2022-01-18T08:42:42Z</time>
      </trkpt>
      <trkpt lat="48.66099" lon="1.43115">
        <ele>133</ele>
        <time>2022-01-18T08:42:53Z</time>
      </trkpt>
      <trkpt lat="48.66079" lon="1.43045">
        <ele>133</ele>
        <time>2022-01-18T08:43:02Z</time>
      </trkpt>
      <trkpt lat="48.66071" lon="1.42992">
        <ele>133</ele>
        <time>2022-01-18T08:43:08Z</time>
      </trkpt>
      <trkpt lat="48.66047" lon="1.42883">
        <ele>133</ele>
        <time>2022-01-18T08:43:21Z</time>
      </trkpt>
      <trkpt lat="48.66014" lon="1.42783">
        <ele>134</ele>
        <time>2022-01-18T08:43:35Z</time>
      </trkpt>
      <trkpt lat="48.65927" lon="1.4261">
        <ele>135</ele>
        <time>2022-01-18T08:44:00Z</time>
      </trkpt>
      <trkpt lat="48.66364" lon="1.42056">
        <ele>136</ele>
        <time>2022-01-18T08:45:42Z</time>
      </trkpt>
      <trkpt lat="48.66457" lon="1.41892">
        <ele>135</ele>
        <time>2022-01-18T08:46:07Z</time>
      </trkpt>
      <trkpt lat="48.66481" lon="1.4186">
        <ele>135</ele>
        <time>2022-01-18T08:46:13Z</time>
      </trkpt>
      <trkpt lat="48.66572" lon="1.41783">
        <ele>135</ele>
        <time>2022-01-18T08:46:31Z</time>
      </trkpt>
      <trkpt lat="48.66651" lon="1.41732">
        <ele>134</ele>
        <time>2022-01-18T08:46:47Z</time>
      </trkpt>
      <trkpt lat="48.66655" lon="1.41718">
        <ele>134</ele>
        <time>2022-01-18T08:46:48Z</time>
      </trkpt>
      <trkpt lat="48.66658" lon="1.4164">
        <ele>135</ele>
        <time>2022-01-18T08:46:57Z</time>
      </trkpt>
      <trkpt lat="48.66712" lon="1.4162">
        <ele>134</ele>
        <time>2022-01-18T08:47:07Z</time>
      </trkpt>
      <trkpt lat="48.66731" lon="1.41607">
        <ele>134</ele>
        <time>2022-01-18T08:47:11Z</time>
      </trkpt>
      <trkpt lat="48.66768" lon="1.41568">
        <ele>134</ele>
        <time>2022-01-18T08:47:19Z</time>
      </trkpt>
      <trkpt lat="48.66814" lon="1.41514">
        <ele>134</ele>
        <time>2022-01-18T08:47:29Z</time>
      </trkpt>
      <trkpt lat="48.6684" lon="1.41458">
        <ele>134</ele>
        <time>2022-01-18T08:47:38Z</time>
      </trkpt>
      <trkpt lat="48.66856" lon="1.41385">
        <ele>133</ele>
        <time>2022-01-18T08:47:47Z</time>
      </trkpt>
      <trkpt lat="48.66873" lon="1.41324">
        <ele>131</ele>
        <time>2022-01-18T08:47:54Z</time>
      </trkpt>
      <trkpt lat="48.66891" lon="1.41289">
        <ele>131</ele>
        <time>2022-01-18T08:48:00Z</time>
      </trkpt>
      <trkpt lat="48.66963" lon="1.41194">
        <ele>131</ele>
        <time>2022-01-18T08:48:17Z</time>
      </trkpt>
      <trkpt lat="48.66981" lon="1.41162">
        <ele>129</ele>
        <time>2022-01-18T08:48:21Z</time>
      </trkpt>
      <trkpt lat="48.67035" lon="1.41014">
        <ele>129</ele>
        <time>2022-01-18T08:48:41Z</time>
      </trkpt>
      <trkpt lat="48.6708" lon="1.4091">
        <ele>129</ele>
        <time>2022-01-18T08:48:56Z</time>
      </trkpt>
      <trkpt lat="48.67106" lon="1.40856">
        <ele>129</ele>
        <time>2022-01-18T08:49:04Z</time>
      </trkpt>
      <trkpt lat="48.67137" lon="1.40768">
        <ele>131</ele>
        <time>2022-01-18T08:49:16Z</time>
      </trkpt>
      <trkpt lat="48.67166" lon="1.40697">
        <ele>132</ele>
        <time>2022-01-18T08:49:25Z</time>
      </trkpt>
      <trkpt lat="48.67269" lon="1.40504">
        <ele>131</ele>
        <time>2022-01-18T08:49:54Z</time>
      </trkpt>
      <trkpt lat="48.67329" lon="1.40323">
        <ele>131</ele>
        <time>2022-01-18T08:50:18Z</time>
      </trkpt>
      <trkpt lat="48.67369" lon="1.40192">
        <ele>132</ele>
        <time>2022-01-18T08:50:35Z</time>
      </trkpt>
      <trkpt lat="48.67439" lon="1.39987">
        <ele>132</ele>
        <time>2022-01-18T08:51:02Z</time>
      </trkpt>
      <trkpt lat="48.67495" lon="1.39836">
        <ele>131</ele>
        <time>2022-01-18T08:51:23Z</time>
      </trkpt>
      <trkpt lat="48.67605" lon="1.39487">
        <ele>132</ele>
        <time>2022-01-18T08:52:08Z</time>
      </trkpt>
      <trkpt lat="48.67574" lon="1.39387">
        <ele>133</ele>
        <time>2022-01-18T08:52:21Z</time>
      </trkpt>
      <trkpt lat="48.67557" lon="1.39305">
        <ele>133</ele>
        <time>2022-01-18T08:52:31Z</time>
      </trkpt>
      <trkpt lat="48.67534" lon="1.39222">
        <ele>134</ele>
        <time>2022-01-18T08:52:42Z</time>
      </trkpt>
      <trkpt lat="48.67513" lon="1.39101">
        <ele>133</ele>
        <time>2022-01-18T08:52:56Z</time>
      </trkpt>
      <trkpt lat="48.67518" lon="1.39065">
        <ele>133</ele>
        <time>2022-01-18T08:53:01Z</time>
      </trkpt>
      <trkpt lat="48.67538" lon="1.39045">
        <ele>133</ele>
        <time>2022-01-18T08:53:05Z</time>
      </trkpt>
      <trkpt lat="48.67552" lon="1.39043">
        <ele>133</ele>
        <time>2022-01-18T08:53:08Z</time>
      </trkpt>
      <trkpt lat="48.6756" lon="1.39046">
        <ele>133</ele>
        <time>2022-01-18T08:53:09Z</time>
      </trkpt>
      <trkpt lat="48.67549" lon="1.39011">
        <ele>133</ele>
        <time>2022-01-18T08:53:14Z</time>
      </trkpt>
      <trkpt lat="48.67512" lon="1.38918">
        <ele>134</ele>
        <time>2022-01-18T08:53:26Z</time>
      </trkpt>
      <trkpt lat="48.67466" lon="1.38813">
        <ele>133</ele>
        <time>2022-01-18T08:53:41Z</time>
      </trkpt>
      <trkpt lat="48.6744" lon="1.38745">
        <ele>133</ele>
        <time>2022-01-18T08:53:50Z</time>
      </trkpt>
      <trkpt lat="48.67421" lon="1.38675">
        <ele>132</ele>
        <time>2022-01-18T08:53:59Z</time>
      </trkpt>
      <trkpt lat="48.67436" lon="1.38662">
        <ele>132</ele>
        <time>2022-01-18T08:54:02Z</time>
      </trkpt>
      <trkpt lat="48.67524" lon="1.38614">
        <ele>131</ele>
        <time>2022-01-18T08:54:19Z</time>
      </trkpt>
      <trkpt lat="48.67456" lon="1.38382">
        <ele>131</ele>
        <time>2022-01-18T08:54:49Z</time>
      </trkpt>
      <trkpt lat="48.67439" lon="1.38328">
        <ele>130</ele>
        <time>2022-01-18T08:54:56Z</time>
      </trkpt>
      <trkpt lat="48.67404" lon="1.38208">
        <ele>131</ele>
        <time>2022-01-18T08:55:11Z</time>
      </trkpt>
      <trkpt lat="48.67397" lon="1.3814">
        <ele>131</ele>
        <time>2022-01-18T08:55:19Z</time>
      </trkpt>
      <trkpt lat="48.67383" lon="1.3791">
        <ele>131</ele>
        <time>2022-01-18T08:55:46Z</time>
      </trkpt>
      <trkpt lat="48.67372" lon="1.37783">
        <ele>131</ele>
        <time>2022-01-18T08:56:02Z</time>
      </trkpt>
      <trkpt lat="48.67326" lon="1.37518">
        <ele>133</ele>
        <time>2022-01-18T08:56:34Z</time>
      </trkpt>
      <trkpt lat="48.67308" lon="1.37011">
        <ele>133</ele>
        <time>2022-01-18T08:57:33Z</time>
      </trkpt>
      <trkpt lat="48.67311" lon="1.36962">
        <ele>133</ele>
        <time>2022-01-18T08:57:39Z</time>
      </trkpt>
      <trkpt lat="48.67318" lon="1.36908">
        <ele>132</ele>
        <time>2022-01-18T08:57:46Z</time>
      </trkpt>
      <trkpt lat="48.67451" lon="1.36767">
        <ele>133</ele>
        <time>2022-01-18T08:58:15Z</time>
      </trkpt>
      <trkpt lat="48.67575" lon="1.3691">
        <ele>133</ele>
        <time>2022-01-18T08:58:42Z</time>
      </trkpt>
      <trkpt lat="48.6777" lon="1.37129">
        <ele>133</ele>
        <time>2022-01-18T08:59:25Z</time>
      </trkpt>
      <trkpt lat="48.6789" lon="1.37271">
        <ele>132</ele>
        <time>2022-01-18T08:59:53Z</time>
      </trkpt>
      <trkpt lat="48.68047" lon="1.37404">
        <ele>132</ele>
        <time>2022-01-18T09:00:25Z</time>
      </trkpt>
      <trkpt lat="48.68085" lon="1.37462">
        <ele>132</ele>
        <time>2022-01-18T09:00:34Z</time>
      </trkpt>
      <trkpt lat="48.68146" lon="1.37582">
        <ele>131</ele>
        <time>2022-01-18T09:00:52Z</time>
      </trkpt>
      <trkpt lat="48.68193" lon="1.37689">
        <ele>131</ele>
        <time>2022-01-18T09:01:07Z</time>
      </trkpt>
      <trkpt lat="48.68294" lon="1.37878">
        <ele>129</ele>
        <time>2022-01-18T09:01:36Z</time>
      </trkpt>
      <trkpt lat="48.68346" lon="1.37965">
        <ele>130</ele>
        <time>2022-01-18T09:01:49Z</time>
      </trkpt>
      <trkpt lat="48.68383" lon="1.38007">
        <ele>130</ele>
        <time>2022-01-18T09:01:58Z</time>
      </trkpt>
      <trkpt lat="48.68403" lon="1.38026">
        <ele>130</ele>
        <time>2022-01-18T09:02:02Z</time>
      </trkpt>
      <trkpt lat="48.68422" lon="1.38036">
        <ele>130</ele>
        <time>2022-01-18T09:02:05Z</time>
      </trkpt>
      <trkpt lat="48.68442" lon="1.3804">
        <ele>130</ele>
        <time>2022-01-18T09:02:09Z</time>
      </trkpt>
      <trkpt lat="48.68463" lon="1.38039">
        <ele>131</ele>
        <time>2022-01-18T09:02:13Z</time>
      </trkpt>
      <trkpt lat="48.68479" lon="1.38033">
        <ele>131</ele>
        <time>2022-01-18T09:02:16Z</time>
      </trkpt>
      <trkpt lat="48.68503" lon="1.38012">
        <ele>131</ele>
        <time>2022-01-18T09:02:21Z</time>
      </trkpt>
      <trkpt lat="48.68593" lon="1.37858">
        <ele>129</ele>
        <time>2022-01-18T09:02:45Z</time>
      </trkpt>
      <trkpt lat="48.68654" lon="1.37762">
        <ele>133</ele>
        <time>2022-01-18T09:03:00Z</time>
      </trkpt>
      <trkpt lat="48.6878" lon="1.37608">
        <ele>134</ele>
        <time>2022-01-18T09:03:29Z</time>
      </trkpt>
      <trkpt lat="48.68815" lon="1.37547">
        <ele>135</ele>
        <time>2022-01-18T09:03:39Z</time>
      </trkpt>
      <trkpt lat="48.68843" lon="1.37479">
        <ele>136</ele>
        <time>2022-01-18T09:03:48Z</time>
      </trkpt>
      <trkpt lat="48.68949" lon="1.37246">
        <ele>133</ele>
        <time>2022-01-18T09:04:21Z</time>
      </trkpt>
      <trkpt lat="48.68966" lon="1.37197">
        <ele>133</ele>
        <time>2022-01-18T09:04:28Z</time>
      </trkpt>
      <trkpt lat="48.68982" lon="1.37141">
        <ele>133</ele>
        <time>2022-01-18T09:04:35Z</time>
      </trkpt>
      <trkpt lat="48.68992" lon="1.37085">
        <ele>134</ele>
        <time>2022-01-18T09:04:42Z</time>
      </trkpt>
      <trkpt lat="48.69027" lon="1.36932">
        <ele>134</ele>
        <time>2022-01-18T09:05:01Z</time>
      </trkpt>
      <trkpt lat="48.69053" lon="1.3684">
        <ele>135</ele>
        <time>2022-01-18T09:05:13Z</time>
      </trkpt>
      <trkpt lat="48.69082" lon="1.36757">
        <ele>134</ele>
        <time>2022-01-18T09:05:24Z</time>
      </trkpt>
      <trkpt lat="48.69137" lon="1.36617">
        <ele>134</ele>
        <time>2022-01-18T09:05:43Z</time>
      </trkpt>
      <trkpt lat="48.69162" lon="1.36563">
        <ele>134</ele>
        <time>2022-01-18T09:05:51Z</time>
      </trkpt>
      <trkpt lat="48.69196" lon="1.36508">
        <ele>133</ele>
        <time>2022-01-18T09:05:59Z</time>
      </trkpt>
      <trkpt lat="48.69235" lon="1.36461">
        <ele>133</ele>
        <time>2022-01-18T09:06:08Z</time>
      </trkpt>
      <trkpt lat="48.69314" lon="1.36376">
        <ele>132</ele>
        <time>2022-01-18T09:06:25Z</time>
      </trkpt>
      <trkpt lat="48.69448" lon="1.3615">
        <ele>132</ele>
        <time>2022-01-18T09:07:01Z</time>
      </trkpt>
      <trkpt lat="48.69474" lon="1.36089">
        <ele>132</ele>
        <time>2022-01-18T09:07:10Z</time>
      </trkpt>
      <trkpt lat="48.69484" lon="1.36061">
        <ele>132</ele>
        <time>2022-01-18T09:07:13Z</time>
      </trkpt>
      <trkpt lat="48.69596" lon="1.35706">
        <ele>132</ele>
        <time>2022-01-18T09:08:00Z</time>
      </trkpt>
      <trkpt lat="48.69629" lon="1.35612">
        <ele>133</ele>
        <time>2022-01-18T09:08:12Z</time>
      </trkpt>
      <trkpt lat="48.69651" lon="1.35558">
        <ele>134</ele>
        <time>2022-01-18T09:08:20Z</time>
      </trkpt>
      <trkpt lat="48.69715" lon="1.35411">
        <ele>134</ele>
        <time>2022-01-18T09:08:40Z</time>
      </trkpt>
      <trkpt lat="48.69748" lon="1.3531">
        <ele>138</ele>
        <time>2022-01-18T09:08:54Z</time>
      </trkpt>
      <trkpt lat="48.69779" lon="1.35223">
        <ele>140</ele>
        <time>2022-01-18T09:09:05Z</time>
      </trkpt>
      <trkpt lat="48.69795" lon="1.35183">
        <ele>140</ele>
        <time>2022-01-18T09:09:11Z</time>
      </trkpt>
      <trkpt lat="48.69851" lon="1.35031">
        <ele>136</ele>
        <time>2022-01-18T09:09:31Z</time>
      </trkpt>
      <trkpt lat="48.69862" lon="1.34996">
        <ele>135</ele>
        <time>2022-01-18T09:09:36Z</time>
      </trkpt>
      <trkpt lat="48.69882" lon="1.34945">
        <ele>134</ele>
        <time>2022-01-18T09:09:43Z</time>
      </trkpt>
      <trkpt lat="48.69902" lon="1.34899">
        <ele>132</ele>
        <time>2022-01-18T09:09:49Z</time>
      </trkpt>
      <trkpt lat="48.6994" lon="1.34774">
        <ele>129</ele>
        <time>2022-01-18T09:10:05Z</time>
      </trkpt>
      <trkpt lat="48.69953" lon="1.34739">
        <ele>128</ele>
        <time>2022-01-18T09:10:10Z</time>
      </trkpt>
      <trkpt lat="48.69979" lon="1.34682">
        <ele>129</ele>
        <time>2022-01-18T09:10:18Z</time>
      </trkpt>
      <trkpt lat="48.7006" lon="1.34544">
        <ele>131</ele>
        <time>2022-01-18T09:10:40Z</time>
      </trkpt>
      <trkpt lat="48.70081" lon="1.345">
        <ele>129</ele>
        <time>2022-01-18T09:10:46Z</time>
      </trkpt>
      <trkpt lat="48.70089" lon="1.34488">
        <ele>128</ele>
        <time>2022-01-18T09:10:48Z</time>
      </trkpt>
      <trkpt lat="48.70099" lon="1.34479">
        <ele>128</ele>
        <time>2022-01-18T09:10:50Z</time>
      </trkpt>
      <trkpt lat="48.70123" lon="1.34471">
        <ele>126</ele>
        <time>2022-01-18T09:10:55Z</time>
      </trkpt>
      <trkpt lat="48.70169" lon="1.34476">
        <ele>124</ele>
        <time>2022-01-18T09:11:03Z</time>
      </trkpt>
      <trkpt lat="48.70178" lon="1.34474">
        <ele>123</ele>
        <time>2022-01-18T09:11:04Z</time>
      </trkpt>
      <trkpt lat="48.70191" lon="1.34465">
        <ele>122</ele>
        <time>2022-01-18T09:11:07Z</time>
      </trkpt>
      <trkpt lat="48.70221" lon="1.34437">
        <ele>116</ele>
        <time>2022-01-18T09:11:13Z</time>
      </trkpt>
      <trkpt lat="48.70225" lon="1.34425">
        <ele>114</ele>
        <time>2022-01-18T09:11:15Z</time>
      </trkpt>
      <trkpt lat="48.70227" lon="1.34408">
        <ele>112</ele>
        <time>2022-01-18T09:11:17Z</time>
      </trkpt>
      <trkpt lat="48.70222" lon="1.34394">
        <ele>112</ele>
        <time>2022-01-18T09:11:19Z</time>
      </trkpt>
      <trkpt lat="48.70213" lon="1.34379">
        <ele>112</ele>
        <time>2022-01-18T09:11:21Z</time>
      </trkpt>
      <trkpt lat="48.70184" lon="1.34358">
        <ele>115</ele>
        <time>2022-01-18T09:11:27Z</time>
      </trkpt>
      <trkpt lat="48.70182" lon="1.34352">
        <ele>115</ele>
        <time>2022-01-18T09:11:28Z</time>
      </trkpt>
      <trkpt lat="48.70183" lon="1.34347">
        <ele>115</ele>
        <time>2022-01-18T09:11:28Z</time>
      </trkpt>
      <trkpt lat="48.70186" lon="1.34344">
        <ele>114</ele>
        <time>2022-01-18T09:11:29Z</time>
      </trkpt>
      <trkpt lat="48.70193" lon="1.34345">
        <ele>113</ele>
        <time>2022-01-18T09:11:30Z</time>
      </trkpt>
      <trkpt lat="48.70215" lon="1.34358">
        <ele>111</ele>
        <time>2022-01-18T09:11:34Z</time>
      </trkpt>
      <trkpt lat="48.70234" lon="1.34364">
        <ele>109</ele>
        <time>2022-01-18T09:11:38Z</time>
      </trkpt>
      <trkpt lat="48.70269" lon="1.34363">
        <ele>104</ele>
        <time>2022-01-18T09:11:44Z</time>
      </trkpt>
      <trkpt lat="48.70275" lon="1.34363">
        <ele>104</ele>
        <time>2022-01-18T09:11:45Z</time>
      </trkpt>
      <trkpt lat="48.70281" lon="1.34359">
        <ele>103</ele>
        <time>2022-01-18T09:11:46Z</time>
      </trkpt>
      <trkpt lat="48.703" lon="1.3434">
        <ele>101</ele>
        <time>2022-01-18T09:11:50Z</time>
      </trkpt>
      <trkpt lat="48.70303" lon="1.34334">
        <ele>101</ele>
        <time>2022-01-18T09:11:51Z</time>
      </trkpt>
      <trkpt lat="48.70312" lon="1.34299">
        <ele>101</ele>
        <time>2022-01-18T09:11:56Z</time>
      </trkpt>
      <trkpt lat="48.70368" lon="1.34056">
        <ele>101</ele>
        <time>2022-01-18T09:12:26Z</time>
      </trkpt>
      <trkpt lat="48.7039" lon="1.33974">
        <ele>99</ele>
        <time>2022-01-18T09:12:36Z</time>
      </trkpt>
      <trkpt lat="48.70433" lon="1.33849">
        <ele>101</ele>
        <time>2022-01-18T09:12:53Z</time>
      </trkpt>
      <trkpt lat="48.70452" lon="1.33793">
        <ele>101</ele>
        <time>2022-01-18T09:13:00Z</time>
      </trkpt>
      <trkpt lat="48.70464" lon="1.33749">
        <ele>101</ele>
        <time>2022-01-18T09:13:06Z</time>
      </trkpt>
      <trkpt lat="48.70464" lon="1.33708">
        <ele>101</ele>
        <time>2022-01-18T09:13:11Z</time>
      </trkpt>
      <trkpt lat="48.70455" lon="1.33636">
        <ele>101</ele>
        <time>2022-01-18T09:13:19Z</time>
      </trkpt>
      <trkpt lat="48.70453" lon="1.33618">
        <ele>101</ele>
        <time>2022-01-18T09:13:21Z</time>
      </trkpt>
      <trkpt lat="48.70466" lon="1.33608">
        <ele>101</ele>
        <time>2022-01-18T09:13:24Z</time>
      </trkpt>
      <trkpt lat="48.70524" lon="1.33553">
        <ele>104</ele>
        <time>2022-01-18T09:13:36Z</time>
      </trkpt>
      <trkpt lat="48.70546" lon="1.33522">
        <ele>106</ele>
        <time>2022-01-18T09:13:41Z</time>
      </trkpt>
      <trkpt lat="48.70593" lon="1.33421">
        <ele>111</ele>
        <time>2022-01-18T09:13:56Z</time>
      </trkpt>
      <trkpt lat="48.7062" lon="1.3337">
        <ele>116</ele>
        <time>2022-01-18T09:14:04Z</time>
      </trkpt>
      <trkpt lat="48.7068" lon="1.3327">
        <ele>122</ele>
        <time>2022-01-18T09:14:19Z</time>
      </trkpt>
      <trkpt lat="48.70705" lon="1.3322">
        <ele>123</ele>
        <time>2022-01-18T09:14:27Z</time>
      </trkpt>
      <trkpt lat="48.70719" lon="1.33186">
        <ele>125</ele>
        <time>2022-01-18T09:14:31Z</time>
      </trkpt>
      <trkpt lat="48.70736" lon="1.3313">
        <ele>127</ele>
        <time>2022-01-18T09:14:39Z</time>
      </trkpt>
      <trkpt lat="48.70777" lon="1.32981">
        <ele>130</ele>
        <time>2022-01-18T09:14:58Z</time>
      </trkpt>
      <trkpt lat="48.70816" lon="1.3281">
        <ele>131</ele>
        <time>2022-01-18T09:15:19Z</time>
      </trkpt>
      <trkpt lat="48.70868" lon="1.32628">
        <ele>131</ele>
        <time>2022-01-18T09:15:42Z</time>
      </trkpt>
      <trkpt lat="48.70913" lon="1.32463">
        <ele>131</ele>
        <time>2022-01-18T09:16:03Z</time>
      </trkpt>
      <trkpt lat="48.70956" lon="1.32291">
        <ele>132</ele>
        <time>2022-01-18T09:16:25Z</time>
      </trkpt>
      <trkpt lat="48.70974" lon="1.32184">
        <ele>132</ele>
        <time>2022-01-18T09:16:38Z</time>
      </trkpt>
      <trkpt lat="48.71011" lon="1.32005">
        <ele>133</ele>
        <time>2022-01-18T09:17:00Z</time>
      </trkpt>
      <trkpt lat="48.71068" lon="1.31722">
        <ele>135</ele>
        <time>2022-01-18T09:17:35Z</time>
      </trkpt>
      <trkpt lat="48.71115" lon="1.31522">
        <ele>135</ele>
        <time>2022-01-18T09:17:59Z</time>
      </trkpt>
      <trkpt lat="48.71129" lon="1.3147">
        <ele>136</ele>
        <time>2022-01-18T09:18:06Z</time>
      </trkpt>
      <trkpt lat="48.71156" lon="1.31397">
        <ele>136</ele>
        <time>2022-01-18T09:18:16Z</time>
      </trkpt>
      <trkpt lat="48.71187" lon="1.3133">
        <ele>137</ele>
        <time>2022-01-18T09:18:25Z</time>
      </trkpt>
      <trkpt lat="48.71214" lon="1.31286">
        <ele>136</ele>
        <time>2022-01-18T09:18:33Z</time>
      </trkpt>
      <trkpt lat="48.71284" lon="1.31196">
        <ele>136</ele>
        <time>2022-01-18T09:18:49Z</time>
      </trkpt>
      <trkpt lat="48.71331" lon="1.31144">
        <ele>136</ele>
        <time>2022-01-18T09:18:59Z</time>
      </trkpt>
      <trkpt lat="48.71361" lon="1.31117">
        <ele>136</ele>
        <time>2022-01-18T09:19:05Z</time>
      </trkpt>
      <trkpt lat="48.7145" lon="1.31049">
        <ele>137</ele>
        <time>2022-01-18T09:19:23Z</time>
      </trkpt>
      <trkpt lat="48.71484" lon="1.31018">
        <ele>137</ele>
        <time>2022-01-18T09:19:30Z</time>
      </trkpt>
      <trkpt lat="48.71539" lon="1.30977">
        <ele>136</ele>
        <time>2022-01-18T09:19:41Z</time>
      </trkpt>
      <trkpt lat="48.71587" lon="1.30947">
        <ele>135</ele>
        <time>2022-01-18T09:19:50Z</time>
      </trkpt>
      <trkpt lat="48.71606" lon="1.30933">
        <ele>134</ele>
        <time>2022-01-18T09:19:54Z</time>
      </trkpt>
      <trkpt lat="48.71635" lon="1.30904">
        <ele>133</ele>
        <time>2022-01-18T09:20:00Z</time>
      </trkpt>
      <trkpt lat="48.71828" lon="1.30654">
        <ele>132</ele>
        <time>2022-01-18T09:20:45Z</time>
      </trkpt>
      <trkpt lat="48.71859" lon="1.30619">
        <ele>133</ele>
        <time>2022-01-18T09:20:52Z</time>
      </trkpt>
      <trkpt lat="48.71893" lon="1.30592">
        <ele>134</ele>
        <time>2022-01-18T09:20:59Z</time>
      </trkpt>
      <trkpt lat="48.71949" lon="1.30554">
        <ele>135</ele>
        <time>2022-01-18T09:21:10Z</time>
      </trkpt>
      <trkpt lat="48.72034" lon="1.30503">
        <ele>135</ele>
        <time>2022-01-18T09:21:26Z</time>
      </trkpt>
      <trkpt lat="48.72046" lon="1.30494">
        <ele>134</ele>
        <time>2022-01-18T09:21:29Z</time>
      </trkpt>
      <trkpt lat="48.72076" lon="1.30467">
        <ele>134</ele>
        <time>2022-01-18T09:21:35Z</time>
      </trkpt>
      <trkpt lat="48.72124" lon="1.30412">
        <ele>134</ele>
        <time>2022-01-18T09:21:46Z</time>
      </trkpt>
      <trkpt lat="48.7214" lon="1.30392">
        <ele>135</ele>
        <time>2022-01-18T09:21:49Z</time>
      </trkpt>
      <trkpt lat="48.72156" lon="1.30358">
        <ele>136</ele>
        <time>2022-01-18T09:21:54Z</time>
      </trkpt>
      <trkpt lat="48.72186" lon="1.3026">
        <ele>136</ele>
        <time>2022-01-18T09:22:07Z</time>
      </trkpt>
      <trkpt lat="48.72188" lon="1.30249">
        <ele>136</ele>
        <time>2022-01-18T09:22:08Z</time>
      </trkpt>
      <trkpt lat="48.72185" lon="1.30201">
        <ele>136</ele>
        <time>2022-01-18T09:22:14Z</time>
      </trkpt>
      <trkpt lat="48.72186" lon="1.30179">
        <ele>136</ele>
        <time>2022-01-18T09:22:17Z</time>
      </trkpt>
      <trkpt lat="48.72195" lon="1.30142">
        <ele>136</ele>
        <time>2022-01-18T09:22:21Z</time>
      </trkpt>
      <trkpt lat="48.72216" lon="1.30084">
        <ele>137</ele>
        <time>2022-01-18T09:22:29Z</time>
      </trkpt>
      <trkpt lat="48.72253" lon="1.30012">
        <ele>137</ele>
        <time>2022-01-18T09:22:40Z</time>
      </trkpt>
      <trkpt lat="48.72267" lon="1.29991">
        <ele>137</ele>
        <time>2022-01-18T09:22:43Z</time>
      </trkpt>
      <trkpt lat="48.72272" lon="1.29986">
        <ele>137</ele>
        <time>2022-01-18T09:22:44Z</time>
      </trkpt>
      <trkpt lat="48.72281" lon="1.29985">
        <ele>137</ele>
        <time>2022-01-18T09:22:46Z</time>
      </trkpt>
      <trkpt lat="48.72287" lon="1.2998">
        <ele>137</ele>
        <time>2022-01-18T09:22:47Z</time>
      </trkpt>
      <trkpt lat="48.72334" lon="1.29921">
        <ele>138</ele>
        <time>2022-01-18T09:22:58Z</time>
      </trkpt>
      <trkpt lat="48.72365" lon="1.29876">
        <ele>138</ele>
        <time>2022-01-18T09:23:06Z</time>
      </trkpt>
      <trkpt lat="48.72413" lon="1.29813">
        <ele>137</ele>
        <time>2022-01-18T09:23:17Z</time>
      </trkpt>
      <trkpt lat="48.72431" lon="1.29794">
        <ele>137</ele>
        <time>2022-01-18T09:23:21Z</time>
      </trkpt>
      <trkpt lat="48.72599" lon="1.29671">
        <ele>137</ele>
        <time>2022-01-18T09:23:54Z</time>
      </trkpt>
      <trkpt lat="48.72732" lon="1.29553">
        <ele>135</ele>
        <time>2022-01-18T09:24:21Z</time>
      </trkpt>
      <trkpt lat="48.72799" lon="1.29465">
        <ele>136</ele>
        <time>2022-01-18T09:24:37Z</time>
      </trkpt>
      <trkpt lat="48.72831" lon="1.2942">
        <ele>135</ele>
        <time>2022-01-18T09:24:45Z</time>
      </trkpt>
      <trkpt lat="48.72843" lon="1.29387">
        <ele>134</ele>
        <time>2022-01-18T09:24:49Z</time>
      </trkpt>
      <trkpt lat="48.7286" lon="1.29322">
        <ele>132</ele>
        <time>2022-01-18T09:24:57Z</time>
      </trkpt>
      <trkpt lat="48.72875" lon="1.29276">
        <ele>131</ele>
        <time>2022-01-18T09:25:04Z</time>
      </trkpt>
      <trkpt lat="48.72891" lon="1.2924">
        <ele>130</ele>
        <time>2022-01-18T09:25:09Z</time>
      </trkpt>
      <trkpt lat="48.72925" lon="1.29171">
        <ele>132</ele>
        <time>2022-01-18T09:25:19Z</time>
      </trkpt>
      <trkpt lat="48.72959" lon="1.29114">
        <ele>132</ele>
        <time>2022-01-18T09:25:28Z</time>
      </trkpt>
      <trkpt lat="48.72993" lon="1.29063">
        <ele>132</ele>
        <time>2022-01-18T09:25:36Z</time>
      </trkpt>
      <trkpt lat="48.73042" lon="1.28994">
        <ele>131</ele>
        <time>2022-01-18T09:25:48Z</time>
      </trkpt>
      <trkpt lat="48.7309" lon="1.28905">
        <ele>131</ele>
        <time>2022-01-18T09:26:02Z</time>
      </trkpt>
      <trkpt lat="48.73105" lon="1.2887">
        <ele>133</ele>
        <time>2022-01-18T09:26:07Z</time>
      </trkpt>
      <trkpt lat="48.73111" lon="1.28808">
        <ele>133</ele>
        <time>2022-01-18T09:26:14Z</time>
      </trkpt>
      <trkpt lat="48.73159" lon="1.28632">
        <ele>135</ele>
        <time>2022-01-18T09:26:36Z</time>
      </trkpt>
      <trkpt lat="48.73191" lon="1.28545">
        <ele>136</ele>
        <time>2022-01-18T09:26:48Z</time>
      </trkpt>
      <trkpt lat="48.73198" lon="1.2852">
        <ele>136</ele>
        <time>2022-01-18T09:26:51Z</time>
      </trkpt>
      <trkpt lat="48.73203" lon="1.2849">
        <ele>136</ele>
        <time>2022-01-18T09:26:55Z</time>
      </trkpt>
      <trkpt lat="48.73205" lon="1.28461">
        <ele>136</ele>
        <time>2022-01-18T09:26:58Z</time>
      </trkpt>
      <trkpt lat="48.73202" lon="1.28448">
        <ele>136</ele>
        <time>2022-01-18T09:27:00Z</time>
      </trkpt>
      <trkpt lat="48.73176" lon="1.28388">
        <ele>135</ele>
        <time>2022-01-18T09:27:08Z</time>
      </trkpt>
      <trkpt lat="48.73173" lon="1.28373">
        <ele>135</ele>
        <time>2022-01-18T09:27:10Z</time>
      </trkpt>
      <trkpt lat="48.73174" lon="1.28359">
        <ele>135</ele>
        <time>2022-01-18T09:27:12Z</time>
      </trkpt>
      <trkpt lat="48.73182" lon="1.28326">
        <ele>135</ele>
        <time>2022-01-18T09:27:16Z</time>
      </trkpt>
      <trkpt lat="48.73186" lon="1.28294">
        <ele>135</ele>
        <time>2022-01-18T09:27:20Z</time>
      </trkpt>
      <trkpt lat="48.73193" lon="1.28201">
        <ele>134</ele>
        <time>2022-01-18T09:27:31Z</time>
      </trkpt>
      <trkpt lat="48.73201" lon="1.28122">
        <ele>134</ele>
        <time>2022-01-18T09:27:40Z</time>
      </trkpt>
      <trkpt lat="48.73209" lon="1.28064">
        <ele>134</ele>
        <time>2022-01-18T09:27:47Z</time>
      </trkpt>
      <trkpt lat="48.7324" lon="1.27941">
        <ele>134</ele>
        <time>2022-01-18T09:28:02Z</time>
      </trkpt>
      <trkpt lat="48.73257" lon="1.2785">
        <ele>135</ele>
        <time>2022-01-18T09:28:14Z</time>
      </trkpt>
      <trkpt lat="48.73265" lon="1.2779">
        <ele>135</ele>
        <time>2022-01-18T09:28:21Z</time>
      </trkpt>
      <trkpt lat="48.73269" lon="1.27749">
        <ele>136</ele>
        <time>2022-01-18T09:28:26Z</time>
      </trkpt>
      <trkpt lat="48.73269" lon="1.27691">
        <ele>137</ele>
        <time>2022-01-18T09:28:32Z</time>
      </trkpt>
      <trkpt lat="48.73264" lon="1.27606">
        <ele>137</ele>
        <time>2022-01-18T09:28:42Z</time>
      </trkpt>
      <trkpt lat="48.73255" lon="1.27539">
        <ele>136</ele>
        <time>2022-01-18T09:28:50Z</time>
      </trkpt>
      <trkpt lat="48.73232" lon="1.27417">
        <ele>137</ele>
        <time>2022-01-18T09:29:05Z</time>
      </trkpt>
      <trkpt lat="48.73195" lon="1.27278">
        <ele>137</ele>
        <time>2022-01-18T09:29:23Z</time>
      </trkpt>
      <trkpt lat="48.73095" lon="1.26963">
        <ele>139</ele>
        <time>2022-01-18T09:30:04Z</time>
      </trkpt>
      <trkpt lat="48.72972" lon="1.26486">
        <ele>140</ele>
        <time>2022-01-18T09:31:04Z</time>
      </trkpt>
      <trkpt lat="48.7296" lon="1.26448">
        <ele>141</ele>
        <time>2022-01-18T09:31:09Z</time>
      </trkpt>
      <trkpt lat="48.72948" lon="1.26421">
        <ele>141</ele>
        <time>2022-01-18T09:31:13Z</time>
      </trkpt>
      <trkpt lat="48.72922" lon="1.26376">
        <ele>141</ele>
        <time>2022-01-18T09:31:20Z</time>
      </trkpt>
      <trkpt lat="48.72913" lon="1.26327">
        <ele>142</ele>
        <time>2022-01-18T09:31:26Z</time>
      </trkpt>
      <trkpt lat="48.72908" lon="1.26284">
        <ele>141</ele>
        <time>2022-01-18T09:31:31Z</time>
      </trkpt>
      <trkpt lat="48.72904" lon="1.2621">
        <ele>142</ele>
        <time>2022-01-18T09:31:40Z</time>
      </trkpt>
      <trkpt lat="48.72901" lon="1.26186">
        <ele>142</ele>
        <time>2022-01-18T09:31:42Z</time>
      </trkpt>
      <trkpt lat="48.72897" lon="1.26175">
        <ele>142</ele>
        <time>2022-01-18T09:31:44Z</time>
      </trkpt>
      <trkpt lat="48.72886" lon="1.26182">
        <ele>142</ele>
        <time>2022-01-18T09:31:46Z</time>
      </trkpt>
      <trkpt lat="48.72863" lon="1.2619">
        <ele>142</ele>
        <time>2022-01-18T09:31:50Z</time>
      </trkpt>
      <trkpt lat="48.72813" lon="1.26199">
        <ele>142</ele>
        <time>2022-01-18T09:31:59Z</time>
      </trkpt>
      <trkpt lat="48.72816" lon="1.26216">
        <ele>142</ele>
        <time>2022-01-18T09:32:01Z</time>
      </trkpt>
      <trkpt lat="48.72788" lon="1.26088">
        <ele>142</ele>
        <time>2022-01-18T09:32:17Z</time>
      </trkpt>
      <trkpt lat="48.72769" lon="1.25968">
        <ele>143</ele>
        <time>2022-01-18T09:32:32Z</time>
      </trkpt>
      <trkpt lat="48.72747" lon="1.25869">
        <ele>143</ele>
        <time>2022-01-18T09:32:44Z</time>
      </trkpt>
      <trkpt lat="48.72737" lon="1.25832">
        <ele>143</ele>
        <time>2022-01-18T09:32:49Z</time>
      </trkpt>
      <trkpt lat="48.72718" lon="1.2577">
        <ele>142</ele>
        <time>2022-01-18T09:32:57Z</time>
      </trkpt>
      <trkpt lat="48.72638" lon="1.25429">
        <ele>146</ele>
        <time>2022-01-18T09:33:39Z</time>
      </trkpt>
      <trkpt lat="48.72627" lon="1.25362">
        <ele>147</ele>
        <time>2022-01-18T09:33:47Z</time>
      </trkpt>
      <trkpt lat="48.7261" lon="1.25225">
        <ele>148</ele>
        <time>2022-01-18T09:34:04Z</time>
      </trkpt>
      <trkpt lat="48.72555" lon="1.24955">
        <ele>151</ele>
        <time>2022-01-18T09:34:37Z</time>
      </trkpt>
      <trkpt lat="48.72545" lon="1.24913">
        <ele>151</ele>
        <time>2022-01-18T09:34:42Z</time>
      </trkpt>
      <trkpt lat="48.72532" lon="1.24877">
        <ele>151</ele>
        <time>2022-01-18T09:34:47Z</time>
      </trkpt>
      <trkpt lat="48.72503" lon="1.24833">
        <ele>151</ele>
        <time>2022-01-18T09:34:54Z</time>
      </trkpt>
      <trkpt lat="48.72383" lon="1.24663">
        <ele>149</ele>
        <time>2022-01-18T09:35:23Z</time>
      </trkpt>
      <trkpt lat="48.72372" lon="1.2464">
        <ele>148</ele>
        <time>2022-01-18T09:35:27Z</time>
      </trkpt>
      <trkpt lat="48.72365" lon="1.24612">
        <ele>148</ele>
        <time>2022-01-18T09:35:30Z</time>
      </trkpt>
      <trkpt lat="48.72338" lon="1.24476">
        <ele>148</ele>
        <time>2022-01-18T09:35:47Z</time>
      </trkpt>
      <trkpt lat="48.72312" lon="1.24378">
        <ele>147</ele>
        <time>2022-01-18T09:35:59Z</time>
      </trkpt>
      <trkpt lat="48.72306" lon="1.24346">
        <ele>146</ele>
        <time>2022-01-18T09:36:03Z</time>
      </trkpt>
      <trkpt lat="48.72303" lon="1.24314">
        <ele>146</ele>
        <time>2022-01-18T09:36:07Z</time>
      </trkpt>
      <trkpt lat="48.72298" lon="1.24209">
        <ele>145</ele>
        <time>2022-01-18T09:36:19Z</time>
      </trkpt>
      <trkpt lat="48.72282" lon="1.24066">
        <ele>144</ele>
        <time>2022-01-18T09:36:36Z</time>
      </trkpt>
      <trkpt lat="48.72271" lon="1.23922">
        <ele>143</ele>
        <time>2022-01-18T09:36:53Z</time>
      </trkpt>
      <trkpt lat="48.72266" lon="1.23887">
        <ele>144</ele>
        <time>2022-01-18T09:36:58Z</time>
      </trkpt>
      <trkpt lat="48.72227" lon="1.23672">
        <ele>144</ele>
        <time>2022-01-18T09:37:24Z</time>
      </trkpt>
      <trkpt lat="48.72212" lon="1.2362">
        <ele>143</ele>
        <time>2022-01-18T09:37:30Z</time>
      </trkpt>
      <trkpt lat="48.72117" lon="1.23349">
        <ele>145</ele>
        <time>2022-01-18T09:38:06Z</time>
      </trkpt>
      <trkpt lat="48.72109" lon="1.2332">
        <ele>146</ele>
        <time>2022-01-18T09:38:10Z</time>
      </trkpt>
      <trkpt lat="48.72034" lon="1.23031">
        <ele>150</ele>
        <time>2022-01-18T09:38:47Z</time>
      </trkpt>
      <trkpt lat="48.72024" lon="1.22978">
        <ele>152</ele>
        <time>2022-01-18T09:38:53Z</time>
      </trkpt>
      <trkpt lat="48.72017" lon="1.22896">
        <ele>151</ele>
        <time>2022-01-18T09:39:03Z</time>
      </trkpt>
      <trkpt lat="48.72016" lon="1.22808">
        <ele>149</ele>
        <time>2022-01-18T09:39:13Z</time>
      </trkpt>
      <trkpt lat="48.7203" lon="1.22702">
        <ele>148</ele>
        <time>2022-01-18T09:39:26Z</time>
      </trkpt>
      <trkpt lat="48.72032" lon="1.22551">
        <ele>147</ele>
        <time>2022-01-18T09:39:43Z</time>
      </trkpt>
      <trkpt lat="48.72031" lon="1.22521">
        <ele>148</ele>
        <time>2022-01-18T09:39:47Z</time>
      </trkpt>
      <trkpt lat="48.72025" lon="1.22465">
        <ele>147</ele>
        <time>2022-01-18T09:39:54Z</time>
      </trkpt>
      <trkpt lat="48.71948" lon="1.21936">
        <ele>150</ele>
        <time>2022-01-18T09:40:57Z</time>
      </trkpt>
      <trkpt lat="48.71931" lon="1.21856">
        <ele>148</ele>
        <time>2022-01-18T09:41:07Z</time>
      </trkpt>
      <trkpt lat="48.71927" lon="1.21811">
        <ele>148</ele>
        <time>2022-01-18T09:41:12Z</time>
      </trkpt>
      <trkpt lat="48.71926" lon="1.2177">
        <ele>149</ele>
        <time>2022-01-18T09:41:17Z</time>
      </trkpt>
      <trkpt lat="48.71942" lon="1.21585">
        <ele>152</ele>
        <time>2022-01-18T09:41:39Z</time>
      </trkpt>
      <trkpt lat="48.7194" lon="1.21565">
        <ele>153</ele>
        <time>2022-01-18T09:41:42Z</time>
      </trkpt>
      <trkpt lat="48.71906" lon="1.21348">
        <ele>157</ele>
        <time>2022-01-18T09:42:08Z</time>
      </trkpt>
      <trkpt lat="48.71888" lon="1.21207">
        <ele>154</ele>
        <time>2022-01-18T09:42:25Z</time>
      </trkpt>
      <trkpt lat="48.71844" lon="1.21003">
        <ele>151</ele>
        <time>2022-01-18T09:42:50Z</time>
      </trkpt>
      <trkpt lat="48.71812" lon="1.20834">
        <ele>155</ele>
        <time>2022-01-18T09:43:10Z</time>
      </trkpt>
      <trkpt lat="48.718" lon="1.2078">
        <ele>156</ele>
        <time>2022-01-18T09:43:17Z</time>
      </trkpt>
      <trkpt lat="48.71794" lon="1.20765">
        <ele>157</ele>
        <time>2022-01-18T09:43:19Z</time>
      </trkpt>
      <trkpt lat="48.71758" lon="1.20716">
        <ele>158</ele>
        <time>2022-01-18T09:43:28Z</time>
      </trkpt>
      <trkpt lat="48.7172" lon="1.20668">
        <ele>158</ele>
        <time>2022-01-18T09:43:37Z</time>
      </trkpt>
      <trkpt lat="48.71711" lon="1.2066">
        <ele>157</ele>
        <time>2022-01-18T09:43:38Z</time>
      </trkpt>
      <trkpt lat="48.71672" lon="1.20672">
        <ele>155</ele>
        <time>2022-01-18T09:43:45Z</time>
      </trkpt>
      <trkpt lat="48.71627" lon="1.20696">
        <ele>154</ele>
        <time>2022-01-18T09:43:54Z</time>
      </trkpt>
      <trkpt lat="48.71604" lon="1.20712">
        <ele>154</ele>
        <time>2022-01-18T09:43:58Z</time>
      </trkpt>
      <trkpt lat="48.71543" lon="1.20774">
        <ele>154</ele>
        <time>2022-01-18T09:44:12Z</time>
      </trkpt>
      <trkpt lat="48.71378" lon="1.20972">
        <ele>157</ele>
        <time>2022-01-18T09:44:49Z</time>
      </trkpt>
      <trkpt lat="48.71266" lon="1.2115">
        <ele>153</ele>
        <time>2022-01-18T09:45:18Z</time>
      </trkpt>
      <trkpt lat="48.71093" lon="1.21445">
        <ele>166</ele>
        <time>2022-01-18T09:46:04Z</time>
      </trkpt>
      <trkpt lat="48.71058" lon="1.21485">
        <ele>167</ele>
        <time>2022-01-18T09:46:12Z</time>
      </trkpt>
      <trkpt lat="48.71036" lon="1.21499">
        <ele>168</ele>
        <time>2022-01-18T09:46:16Z</time>
      </trkpt>
      <trkpt lat="48.71006" lon="1.21514">
        <ele>168</ele>
        <time>2022-01-18T09:46:22Z</time>
      </trkpt>
      <trkpt lat="48.70945" lon="1.21543">
        <ele>165</ele>
        <time>2022-01-18T09:46:33Z</time>
      </trkpt>
      <trkpt lat="48.70871" lon="1.21603">
        <ele>164</ele>
        <time>2022-01-18T09:46:48Z</time>
      </trkpt>
      <trkpt lat="48.70812" lon="1.21659">
        <ele>164</ele>
        <time>2022-01-18T09:47:01Z</time>
      </trkpt>
      <trkpt lat="48.7068" lon="1.21777">
        <ele>165</ele>
        <time>2022-01-18T09:47:28Z</time>
      </trkpt>
      <trkpt lat="48.70655" lon="1.21795">
        <ele>165</ele>
        <time>2022-01-18T09:47:33Z</time>
      </trkpt>
      <trkpt lat="48.70631" lon="1.21807">
        <ele>164</ele>
        <time>2022-01-18T09:47:37Z</time>
      </trkpt>
      <trkpt lat="48.70577" lon="1.21821">
        <ele>162</ele>
        <time>2022-01-18T09:47:47Z</time>
      </trkpt>
      <trkpt lat="48.705" lon="1.21846">
        <ele>159</ele>
        <time>2022-01-18T09:48:01Z</time>
      </trkpt>
      <trkpt lat="48.70423" lon="1.21863">
        <ele>160</ele>
        <time>2022-01-18T09:48:15Z</time>
      </trkpt>
      <trkpt lat="48.70347" lon="1.21885">
        <ele>160</ele>
        <time>2022-01-18T09:48:29Z</time>
      </trkpt>
      <trkpt lat="48.7016" lon="1.21931">
        <ele>162</ele>
        <time>2022-01-18T09:49:02Z</time>
      </trkpt>
      <trkpt lat="48.70119" lon="1.21952">
        <ele>162</ele>
        <time>2022-01-18T09:49:10Z</time>
      </trkpt>
      <trkpt lat="48.70058" lon="1.21996">
        <ele>162</ele>
        <time>2022-01-18T09:49:22Z</time>
      </trkpt>
      <trkpt lat="48.69899" lon="1.22126">
        <ele>159</ele>
        <time>2022-01-18T09:49:54Z</time>
      </trkpt>
      <trkpt lat="48.69493" lon="1.22465">
        <ele>159</ele>
        <time>2022-01-18T09:51:17Z</time>
      </trkpt>
      <trkpt lat="48.69482" lon="1.22483">
        <ele>159</ele>
        <time>2022-01-18T09:51:20Z</time>
      </trkpt>
      <trkpt lat="48.69478" lon="1.22494">
        <ele>159</ele>
        <time>2022-01-18T09:51:21Z</time>
      </trkpt>
      <trkpt lat="48.69474" lon="1.22514">
        <ele>159</ele>
        <time>2022-01-18T09:51:23Z</time>
      </trkpt>
      <trkpt lat="48.69471" lon="1.22549">
        <ele>159</ele>
        <time>2022-01-18T09:51:28Z</time>
      </trkpt>
      <trkpt lat="48.69465" lon="1.22579">
        <ele>160</ele>
        <time>2022-01-18T09:51:31Z</time>
      </trkpt>
      <trkpt lat="48.69456" lon="1.22604">
        <ele>160</ele>
        <time>2022-01-18T09:51:35Z</time>
      </trkpt>
      <trkpt lat="48.69453" lon="1.22623">
        <ele>160</ele>
        <time>2022-01-18T09:51:37Z</time>
      </trkpt>
      <trkpt lat="48.69454" lon="1.22639">
        <ele>161</ele>
        <time>2022-01-18T09:51:39Z</time>
      </trkpt>
      <trkpt lat="48.69452" lon="1.22651">
        <ele>161</ele>
        <time>2022-01-18T09:51:40Z</time>
      </trkpt>
      <trkpt lat="48.69422" lon="1.22683">
        <ele>161</ele>
        <time>2022-01-18T09:51:47Z</time>
      </trkpt>
      <trkpt lat="48.69388" lon="1.22724">
        <ele>160</ele>
        <time>2022-01-18T09:51:55Z</time>
      </trkpt>
      <trkpt lat="48.69211" lon="1.22891">
        <ele>162</ele>
        <time>2022-01-18T09:52:32Z</time>
      </trkpt>
      <trkpt lat="48.69008" lon="1.23119">
        <ele>162</ele>
        <time>2022-01-18T09:53:17Z</time>
      </trkpt>
      <trkpt lat="48.68982" lon="1.23146">
        <ele>162</ele>
        <time>2022-01-18T09:53:22Z</time>
      </trkpt>
      <trkpt lat="48.68957" lon="1.23167">
        <ele>163</ele>
        <time>2022-01-18T09:53:27Z</time>
      </trkpt>
      <trkpt lat="48.68835" lon="1.23222">
        <ele>163</ele>
        <time>2022-01-18T09:53:50Z</time>
      </trkpt>
      <trkpt lat="48.68807" lon="1.23241">
        <ele>163</ele>
        <time>2022-01-18T09:53:55Z</time>
      </trkpt>
      <trkpt lat="48.68779" lon="1.23267">
        <ele>164</ele>
        <time>2022-01-18T09:54:01Z</time>
      </trkpt>
      <trkpt lat="48.68687" lon="1.23381">
        <ele>163</ele>
        <time>2022-01-18T09:54:22Z</time>
      </trkpt>
      <trkpt lat="48.68583" lon="1.23547">
        <ele>163</ele>
        <time>2022-01-18T09:54:49Z</time>
      </trkpt>
      <trkpt lat="48.68552" lon="1.23592">
        <ele>163</ele>
        <time>2022-01-18T09:54:57Z</time>
      </trkpt>
      <trkpt lat="48.68352" lon="1.23797">
        <ele>161</ele>
        <time>2022-01-18T09:55:40Z</time>
      </trkpt>
      <trkpt lat="48.68316" lon="1.23837">
        <ele>161</ele>
        <time>2022-01-18T09:55:48Z</time>
      </trkpt>
      <trkpt lat="48.6829" lon="1.23871">
        <ele>162</ele>
        <time>2022-01-18T09:55:54Z</time>
      </trkpt>
      <trkpt lat="48.68168" lon="1.24061">
        <ele>164</ele>
        <time>2022-01-18T09:56:25Z</time>
      </trkpt>
      <trkpt lat="48.68073" lon="1.24196">
        <ele>163</ele>
        <time>2022-01-18T09:56:48Z</time>
      </trkpt>
      <trkpt lat="48.68043" lon="1.24231">
        <ele>163</ele>
        <time>2022-01-18T09:56:55Z</time>
      </trkpt>
      <trkpt lat="48.67997" lon="1.24272">
        <ele>164</ele>
        <time>2022-01-18T09:57:05Z</time>
      </trkpt>
      <trkpt lat="48.67958" lon="1.24299">
        <ele>164</ele>
        <time>2022-01-18T09:57:12Z</time>
      </trkpt>
      <trkpt lat="48.67738" lon="1.24411">
        <ele>165</ele>
        <time>2022-01-18T09:57:53Z</time>
      </trkpt>
      <trkpt lat="48.67612" lon="1.24471">
        <ele>167</ele>
        <time>2022-01-18T09:58:17Z</time>
      </trkpt>
      <trkpt lat="48.67566" lon="1.24503">
        <ele>167</ele>
        <time>2022-01-18T09:58:26Z</time>
      </trkpt>
      <trkpt lat="48.67465" lon="1.24604">
        <ele>167</ele>
        <time>2022-01-18T09:58:47Z</time>
      </trkpt>
      <trkpt lat="48.67445" lon="1.24628">
        <ele>166</ele>
        <time>2022-01-18T09:58:52Z</time>
      </trkpt>
      <trkpt lat="48.67437" lon="1.24649">
        <ele>166</ele>
        <time>2022-01-18T09:58:55Z</time>
      </trkpt>
      <trkpt lat="48.6744" lon="1.24903">
        <ele>165</ele>
        <time>2022-01-18T09:59:25Z</time>
      </trkpt>
      <trkpt lat="48.67446" lon="1.25254">
        <ele>164</ele>
        <time>2022-01-18T10:00:06Z</time>
      </trkpt>
      <trkpt lat="48.67443" lon="1.2528">
        <ele>164</ele>
        <time>2022-01-18T10:00:09Z</time>
      </trkpt>
      <trkpt lat="48.6739" lon="1.25311">
        <ele>164</ele>
        <time>2022-01-18T10:00:19Z</time>
      </trkpt>
      <trkpt lat="48.67327" lon="1.25355">
        <ele>164</ele>
        <time>2022-01-18T10:00:32Z</time>
      </trkpt>
      <trkpt lat="48.67299" lon="1.25397">
        <ele>164</ele>
        <time>2022-01-18T10:00:39Z</time>
      </trkpt>
      <trkpt lat="48.67279" lon="1.25458">
        <ele>164</ele>
        <time>2022-01-18T10:00:47Z</time>
      </trkpt>
      <trkpt lat="48.6723" lon="1.2565">
        <ele>165</ele>
        <time>2022-01-18T10:01:11Z</time>
      </trkpt>
      <trkpt lat="48.67213" lon="1.25675">
        <ele>165</ele>
        <time>2022-01-18T10:01:15Z</time>
      </trkpt>
      <trkpt lat="48.67163" lon="1.25728">
        <ele>164</ele>
        <time>2022-01-18T10:01:26Z</time>
      </trkpt>
      <trkpt lat="48.67117" lon="1.25799">
        <ele>164</ele>
        <time>2022-01-18T10:01:37Z</time>
      </trkpt>
      <trkpt lat="48.6706" lon="1.2585">
        <ele>165</ele>
        <time>2022-01-18T10:01:49Z</time>
      </trkpt>
      <trkpt lat="48.67018" lon="1.2591">
        <ele>165</ele>
        <time>2022-01-18T10:02:00Z</time>
      </trkpt>
      <trkpt lat="48.66975" lon="1.25992">
        <ele>164</ele>
        <time>2022-01-18T10:02:12Z</time>
      </trkpt>
      <trkpt lat="48.66923" lon="1.26125">
        <ele>161</ele>
        <time>2022-01-18T10:02:30Z</time>
      </trkpt>
      <trkpt lat="48.66885" lon="1.26224">
        <ele>158</ele>
        <time>2022-01-18T10:02:43Z</time>
      </trkpt>
      <trkpt lat="48.66865" lon="1.26261">
        <ele>157</ele>
        <time>2022-01-18T10:02:49Z</time>
      </trkpt>
      <trkpt lat="48.66854" lon="1.26277">
        <ele>157</ele>
        <time>2022-01-18T10:02:52Z</time>
      </trkpt>
      <trkpt lat="48.66751" lon="1.26381">
        <ele>158</ele>
        <time>2022-01-18T10:03:14Z</time>
      </trkpt>
      <trkpt lat="48.66631" lon="1.26557">
        <ele>151</ele>
        <time>2022-01-18T10:03:44Z</time>
      </trkpt>
      <trkpt lat="48.66444" lon="1.26801">
        <ele>146</ele>
        <time>2022-01-18T10:04:27Z</time>
      </trkpt>
      <trkpt lat="48.66417" lon="1.26819">
        <ele>145</ele>
        <time>2022-01-18T10:04:33Z</time>
      </trkpt>
      <trkpt lat="48.66327" lon="1.2686">
        <ele>143</ele>
        <time>2022-01-18T10:04:49Z</time>
      </trkpt>
      <trkpt lat="48.66253" lon="1.26916">
        <ele>146</ele>
        <time>2022-01-18T10:05:04Z</time>
      </trkpt>
      <trkpt lat="48.66173" lon="1.26981">
        <ele>145</ele>
        <time>2022-01-18T10:05:20Z</time>
      </trkpt>
      <trkpt lat="48.66145" lon="1.27014">
        <ele>144</ele>
        <time>2022-01-18T10:05:27Z</time>
      </trkpt>
      <trkpt lat="48.66128" lon="1.27042">
        <ele>145</ele>
        <time>2022-01-18T10:05:31Z</time>
      </trkpt>
      <trkpt lat="48.66101" lon="1.27111">
        <ele>145</ele>
        <time>2022-01-18T10:05:41Z</time>
      </trkpt>
      <trkpt lat="48.66083" lon="1.27144">
        <ele>144</ele>
        <time>2022-01-18T10:05:46Z</time>
      </trkpt>
      <trkpt lat="48.66061" lon="1.27168">
        <ele>142</ele>
        <time>2022-01-18T10:05:50Z</time>
      </trkpt>
      <trkpt lat="48.66052" lon="1.27167">
        <ele>141</ele>
        <time>2022-01-18T10:05:52Z</time>
      </trkpt>
      <trkpt lat="48.66007" lon="1.27145">
        <ele>137</ele>
        <time>2022-01-18T10:06:00Z</time>
      </trkpt>
      <trkpt lat="48.65993" lon="1.27148">
        <ele>136</ele>
        <time>2022-01-18T10:06:03Z</time>
      </trkpt>
      <trkpt lat="48.65967" lon="1.27164">
        <ele>133</ele>
        <time>2022-01-18T10:06:08Z</time>
      </trkpt>
      <trkpt lat="48.65943" lon="1.27148">
        <ele>131</ele>
        <time>2022-01-18T10:06:13Z</time>
      </trkpt>
      <trkpt lat="48.6593" lon="1.27134">
        <ele>130</ele>
        <time>2022-01-18T10:06:15Z</time>
      </trkpt>
      <trkpt lat="48.65899" lon="1.27224">
        <ele>126</ele>
        <time>2022-01-18T10:06:27Z</time>
      </trkpt>
      <trkpt lat="48.65881" lon="1.27288">
        <ele>123</ele>
        <time>2022-01-18T10:06:36Z</time>
      </trkpt>
      <trkpt lat="48.65875" lon="1.27305">
        <ele>123</ele>
        <time>2022-01-18T10:06:38Z</time>
      </trkpt>
      <trkpt lat="48.65849" lon="1.27353">
        <ele>122</ele>
        <time>2022-01-18T10:06:45Z</time>
      </trkpt>
      <trkpt lat="48.65804" lon="1.27428">
        <ele>123</ele>
        <time>2022-01-18T10:06:57Z</time>
      </trkpt>
      <trkpt lat="48.65794" lon="1.27443">
        <ele>124</ele>
        <time>2022-01-18T10:06:59Z</time>
      </trkpt>
      <trkpt lat="48.65789" lon="1.2745">
        <ele>124</ele>
        <time>2022-01-18T10:07:01Z</time>
      </trkpt>
      <trkpt lat="48.65811" lon="1.27509">
        <ele>122</ele>
        <time>2022-01-18T10:07:09Z</time>
      </trkpt>
      <trkpt lat="48.65816" lon="1.27526">
        <ele>122</ele>
        <time>2022-01-18T10:07:11Z</time>
      </trkpt>
      <trkpt lat="48.65816" lon="1.2754">
        <ele>123</ele>
        <time>2022-01-18T10:07:13Z</time>
      </trkpt>
      <trkpt lat="48.65813" lon="1.27554">
        <ele>123</ele>
        <time>2022-01-18T10:07:14Z</time>
      </trkpt>
      <trkpt lat="48.65774" lon="1.27619">
        <ele>125</ele>
        <time>2022-01-18T10:07:25Z</time>
      </trkpt>
      <trkpt lat="48.65769" lon="1.27637">
        <ele>126</ele>
        <time>2022-01-18T10:07:27Z</time>
      </trkpt>
      <trkpt lat="48.65768" lon="1.27656">
        <ele>126</ele>
        <time>2022-01-18T10:07:29Z</time>
      </trkpt>
      <trkpt lat="48.65776" lon="1.27783">
        <ele>125</ele>
        <time>2022-01-18T10:07:44Z</time>
      </trkpt>
      <trkpt lat="48.65788" lon="1.27923">
        <ele>125</ele>
        <time>2022-01-18T10:08:01Z</time>
      </trkpt>
      <trkpt lat="48.65809" lon="1.28115">
        <ele>120</ele>
        <time>2022-01-18T10:08:24Z</time>
      </trkpt>
      <trkpt lat="48.65824" lon="1.28193">
        <ele>119</ele>
        <time>2022-01-18T10:08:33Z</time>
      </trkpt>
      <trkpt lat="48.65807" lon="1.2821">
        <ele>119</ele>
        <time>2022-01-18T10:08:37Z</time>
      </trkpt>
      <trkpt lat="48.658" lon="1.28215">
        <ele>119</ele>
        <time>2022-01-18T10:08:38Z</time>
      </trkpt>
      <trkpt lat="48.65758" lon="1.28263">
        <ele>120</ele>
        <time>2022-01-18T10:08:47Z</time>
      </trkpt>
      <trkpt lat="48.6574" lon="1.28276">
        <ele>122</ele>
        <time>2022-01-18T10:08:51Z</time>
      </trkpt>
      <trkpt lat="48.6573" lon="1.28283">
        <ele>123</ele>
        <time>2022-01-18T10:08:53Z</time>
      </trkpt>
      <trkpt lat="48.65715" lon="1.28288">
        <ele>125</ele>
        <time>2022-01-18T10:08:56Z</time>
      </trkpt>
      <trkpt lat="48.65687" lon="1.28295">
        <ele>128</ele>
        <time>2022-01-18T10:09:01Z</time>
      </trkpt>
      <trkpt lat="48.6566" lon="1.28309">
        <ele>131</ele>
        <time>2022-01-18T10:09:06Z</time>
      </trkpt>
      <trkpt lat="48.65623" lon="1.28333">
        <ele>135</ele>
        <time>2022-01-18T10:09:13Z</time>
      </trkpt>
      <trkpt lat="48.65568" lon="1.28365">
        <ele>139</ele>
        <time>2022-01-18T10:09:23Z</time>
      </trkpt>
      <trkpt lat="48.65509" lon="1.28415">
        <ele>139</ele>
        <time>2022-01-18T10:09:36Z</time>
      </trkpt>
      <trkpt lat="48.65476" lon="1.28456">
        <ele>139</ele>
        <time>2022-01-18T10:09:43Z</time>
      </trkpt>
      <trkpt lat="48.65447" lon="1.28498">
        <ele>140</ele>
        <time>2022-01-18T10:09:50Z</time>
      </trkpt>
      <trkpt lat="48.65429" lon="1.28531">
        <ele>140</ele>
        <time>2022-01-18T10:09:55Z</time>
      </trkpt>
      <trkpt lat="48.65401" lon="1.28598">
        <ele>140</ele>
        <time>2022-01-18T10:10:05Z</time>
      </trkpt>
      <trkpt lat="48.6537" lon="1.28686">
        <ele>141</ele>
        <time>2022-01-18T10:10:16Z</time>
      </trkpt>
      <trkpt lat="48.65353" lon="1.2874">
        <ele>141</ele>
        <time>2022-01-18T10:10:23Z</time>
      </trkpt>
      <trkpt lat="48.65316" lon="1.28946">
        <ele>142</ele>
        <time>2022-01-18T10:10:48Z</time>
      </trkpt>
      <trkpt lat="48.65297" lon="1.29028">
        <ele>145</ele>
        <time>2022-01-18T10:10:59Z</time>
      </trkpt>
      <trkpt lat="48.6527" lon="1.29129">
        <ele>146</ele>
        <time>2022-01-18T10:11:11Z</time>
      </trkpt>
      <trkpt lat="48.65248" lon="1.2924">
        <ele>143</ele>
        <time>2022-01-18T10:11:25Z</time>
      </trkpt>
      <trkpt lat="48.65237" lon="1.2926">
        <ele>143</ele>
        <time>2022-01-18T10:11:28Z</time>
      </trkpt>
      <trkpt lat="48.65228" lon="1.29273">
        <ele>144</ele>
        <time>2022-01-18T10:11:30Z</time>
      </trkpt>
      <trkpt lat="48.65164" lon="1.29331">
        <ele>146</ele>
        <time>2022-01-18T10:11:44Z</time>
      </trkpt>
      <trkpt lat="48.65142" lon="1.29356">
        <ele>146</ele>
        <time>2022-01-18T10:11:49Z</time>
      </trkpt>
      <trkpt lat="48.65133" lon="1.29372">
        <ele>146</ele>
        <time>2022-01-18T10:11:51Z</time>
      </trkpt>
      <trkpt lat="48.65113" lon="1.2941">
        <ele>146</ele>
        <time>2022-01-18T10:11:57Z</time>
      </trkpt>
      <trkpt lat="48.64991" lon="1.29597">
        <ele>148</ele>
        <time>2022-01-18T10:12:28Z</time>
      </trkpt>
      <trkpt lat="48.64979" lon="1.29614">
        <ele>148</ele>
        <time>2022-01-18T10:12:31Z</time>
      </trkpt>
      <trkpt lat="48.64952" lon="1.29637">
        <ele>149</ele>
        <time>2022-01-18T10:12:36Z</time>
      </trkpt>
      <trkpt lat="48.64938" lon="1.29647">
        <ele>149</ele>
        <time>2022-01-18T10:12:39Z</time>
      </trkpt>
      <trkpt lat="48.64923" lon="1.29653">
        <ele>149</ele>
        <time>2022-01-18T10:12:42Z</time>
      </trkpt>
      <trkpt lat="48.64749" lon="1.29707">
        <ele>154</ele>
        <time>2022-01-18T10:13:13Z</time>
      </trkpt>
      <trkpt lat="48.64733" lon="1.29709">
        <ele>154</ele>
        <time>2022-01-18T10:13:16Z</time>
      </trkpt>
      <trkpt lat="48.64674" lon="1.29702">
        <ele>154</ele>
        <time>2022-01-18T10:13:27Z</time>
      </trkpt>
      <trkpt lat="48.64652" lon="1.29707">
        <ele>154</ele>
        <time>2022-01-18T10:13:31Z</time>
      </trkpt>
      <trkpt lat="48.64644" lon="1.29713">
        <ele>154</ele>
        <time>2022-01-18T10:13:32Z</time>
      </trkpt>
      <trkpt lat="48.64636" lon="1.29723">
        <ele>155</ele>
        <time>2022-01-18T10:13:34Z</time>
      </trkpt>
      <trkpt lat="48.64631" lon="1.29735">
        <ele>155</ele>
        <time>2022-01-18T10:13:36Z</time>
      </trkpt>
      <trkpt lat="48.64624" lon="1.29766">
        <ele>155</ele>
        <time>2022-01-18T10:13:39Z</time>
      </trkpt>
      <trkpt lat="48.64623" lon="1.29784">
        <ele>155</ele>
        <time>2022-01-18T10:13:42Z</time>
      </trkpt>
      <trkpt lat="48.64627" lon="1.29818">
        <ele>155</ele>
        <time>2022-01-18T10:13:46Z</time>
      </trkpt>
      <trkpt lat="48.64645" lon="1.29911">
        <ele>153</ele>
        <time>2022-01-18T10:13:57Z</time>
      </trkpt>
      <trkpt lat="48.64665" lon="1.30032">
        <ele>153</ele>
        <time>2022-01-18T10:14:12Z</time>
      </trkpt>
      <trkpt lat="48.64666" lon="1.30051">
        <ele>153</ele>
        <time>2022-01-18T10:14:14Z</time>
      </trkpt>
      <trkpt lat="48.64666" lon="1.30072">
        <ele>154</ele>
        <time>2022-01-18T10:14:16Z</time>
      </trkpt>
      <trkpt lat="48.64664" lon="1.30089">
        <ele>154</ele>
        <time>2022-01-18T10:14:18Z</time>
      </trkpt>
      <trkpt lat="48.64654" lon="1.30126">
        <ele>154</ele>
        <time>2022-01-18T10:14:23Z</time>
      </trkpt>
      <trkpt lat="48.64621" lon="1.30207">
        <ele>153</ele>
        <time>2022-01-18T10:14:34Z</time>
      </trkpt>
      <trkpt lat="48.64606" lon="1.30251">
        <ele>152</ele>
        <time>2022-01-18T10:14:40Z</time>
      </trkpt>
      <trkpt lat="48.64582" lon="1.30342">
        <ele>152</ele>
        <time>2022-01-18T10:14:52Z</time>
      </trkpt>
      <trkpt lat="48.64473" lon="1.30837">
        <ele>158</ele>
        <time>2022-01-18T10:15:53Z</time>
      </trkpt>
      <trkpt lat="48.6446" lon="1.30903">
        <ele>157</ele>
        <time>2022-01-18T10:16:01Z</time>
      </trkpt>
      <trkpt lat="48.64458" lon="1.30933">
        <ele>157</ele>
        <time>2022-01-18T10:16:05Z</time>
      </trkpt>
      <trkpt lat="48.64457" lon="1.30973">
        <ele>157</ele>
        <time>2022-01-18T10:16:09Z</time>
      </trkpt>
      <trkpt lat="48.64457" lon="1.31291">
        <ele>153</ele>
        <time>2022-01-18T10:16:47Z</time>
      </trkpt>
      <trkpt lat="48.64452" lon="1.31349">
        <ele>153</ele>
        <time>2022-01-18T10:16:54Z</time>
      </trkpt>
      <trkpt lat="48.64446" lon="1.31375">
        <ele>153</ele>
        <time>2022-01-18T10:16:57Z</time>
      </trkpt>
      <trkpt lat="48.64439" lon="1.314">
        <ele>153</ele>
        <time>2022-01-18T10:17:00Z</time>
      </trkpt>
      <trkpt lat="48.64428" lon="1.31426">
        <ele>153</ele>
        <time>2022-01-18T10:17:04Z</time>
      </trkpt>
      <trkpt lat="48.6422" lon="1.31874">
        <ele>166</ele>
        <time>2022-01-18T10:18:08Z</time>
      </trkpt>
      <trkpt lat="48.64202" lon="1.31926">
        <ele>166</ele>
        <time>2022-01-18T10:18:15Z</time>
      </trkpt>
      <trkpt lat="48.64168" lon="1.32056">
        <ele>166</ele>
        <time>2022-01-18T10:18:31Z</time>
      </trkpt>
      <trkpt lat="48.64157" lon="1.3209">
        <ele>165</ele>
        <time>2022-01-18T10:18:36Z</time>
      </trkpt>
      <trkpt lat="48.64109" lon="1.32186">
        <ele>166</ele>
        <time>2022-01-18T10:18:50Z</time>
      </trkpt>
      <trkpt lat="48.64027" lon="1.32399">
        <ele>165</ele>
        <time>2022-01-18T10:19:19Z</time>
      </trkpt>
      <trkpt lat="48.64005" lon="1.32451">
        <ele>164</ele>
        <time>2022-01-18T10:19:26Z</time>
      </trkpt>
      <trkpt lat="48.6398" lon="1.32502">
        <ele>163</ele>
        <time>2022-01-18T10:19:34Z</time>
      </trkpt>
      <trkpt lat="48.6391" lon="1.3263">
        <ele>165</ele>
        <time>2022-01-18T10:19:53Z</time>
      </trkpt>
      <trkpt lat="48.63905" lon="1.32646">
        <ele>166</ele>
        <time>2022-01-18T10:19:55Z</time>
      </trkpt>
      <trkpt lat="48.63901" lon="1.32667">
        <ele>166</ele>
        <time>2022-01-18T10:19:58Z</time>
      </trkpt>
      <trkpt lat="48.63898" lon="1.32726">
        <ele>165</ele>
        <time>2022-01-18T10:20:05Z</time>
      </trkpt>
      <trkpt lat="48.63893" lon="1.32741">
        <ele>165</ele>
        <time>2022-01-18T10:20:07Z</time>
      </trkpt>
      <trkpt lat="48.63889" lon="1.3275">
        <ele>165</ele>
        <time>2022-01-18T10:20:08Z</time>
      </trkpt>
      <trkpt lat="48.63883" lon="1.32756">
        <ele>165</ele>
        <time>2022-01-18T10:20:09Z</time>
      </trkpt>
      <trkpt lat="48.63832" lon="1.32784">
        <ele>163</ele>
        <time>2022-01-18T10:20:19Z</time>
      </trkpt>
      <trkpt lat="48.63826" lon="1.32793">
        <ele>163</ele>
        <time>2022-01-18T10:20:21Z</time>
      </trkpt>
      <trkpt lat="48.63822" lon="1.32805">
        <ele>163</ele>
        <time>2022-01-18T10:20:22Z</time>
      </trkpt>
      <trkpt lat="48.63821" lon="1.32817">
        <ele>163</ele>
        <time>2022-01-18T10:20:24Z</time>
      </trkpt>
      <trkpt lat="48.63829" lon="1.32868">
        <ele>163</ele>
        <time>2022-01-18T10:20:30Z</time>
      </trkpt>
      <trkpt lat="48.63831" lon="1.32917">
        <ele>163</ele>
        <time>2022-01-18T10:20:35Z</time>
      </trkpt>
      <trkpt lat="48.63831" lon="1.33052">
        <ele>162</ele>
        <time>2022-01-18T10:20:51Z</time>
      </trkpt>
      <trkpt lat="48.63759" lon="1.33196">
        <ele>161</ele>
        <time>2022-01-18T10:21:13Z</time>
      </trkpt>
      <trkpt lat="48.63677" lon="1.33412">
        <ele>165</ele>
        <time>2022-01-18T10:21:42Z</time>
      </trkpt>
      <trkpt lat="48.6356" lon="1.33765">
        <ele>168</ele>
        <time>2022-01-18T10:22:28Z</time>
      </trkpt>
      <trkpt lat="48.6352" lon="1.33871">
        <ele>168</ele>
        <time>2022-01-18T10:22:43Z</time>
      </trkpt>
      <trkpt lat="48.635" lon="1.33911">
        <ele>169</ele>
        <time>2022-01-18T10:22:49Z</time>
      </trkpt>
      <trkpt lat="48.63481" lon="1.33943">
        <ele>169</ele>
        <time>2022-01-18T10:22:54Z</time>
      </trkpt>
      <trkpt lat="48.63461" lon="1.3397">
        <ele>169</ele>
        <time>2022-01-18T10:22:58Z</time>
      </trkpt>
      <trkpt lat="48.63296" lon="1.34147">
        <ele>170</ele>
        <time>2022-01-18T10:23:34Z</time>
      </trkpt>
      <trkpt lat="48.63157" lon="1.34321">
        <ele>170</ele>
        <time>2022-01-18T10:24:06Z</time>
      </trkpt>
      <trkpt lat="48.63118" lon="1.34363">
        <ele>171</ele>
        <time>2022-01-18T10:24:15Z</time>
      </trkpt>
      <trkpt lat="48.63086" lon="1.34407">
        <ele>171</ele>
        <time>2022-01-18T10:24:23Z</time>
      </trkpt>
      <trkpt lat="48.63046" lon="1.3447">
        <ele>171</ele>
        <time>2022-01-18T10:24:33Z</time>
      </trkpt>
      <trkpt lat="48.62976" lon="1.34587">
        <ele>172</ele>
        <time>2022-01-18T10:24:51Z</time>
      </trkpt>
      <trkpt lat="48.62906" lon="1.34709">
        <ele>172</ele>
        <time>2022-01-18T10:25:10Z</time>
      </trkpt>
      <trkpt lat="48.6287" lon="1.34769">
        <ele>172</ele>
        <time>2022-01-18T10:25:20Z</time>
      </trkpt>
      <trkpt lat="48.62832" lon="1.34821">
        <ele>172</ele>
        <time>2022-01-18T10:25:29Z</time>
      </trkpt>
      <trkpt lat="48.62791" lon="1.34869">
        <ele>171</ele>
        <time>2022-01-18T10:25:38Z</time>
      </trkpt>
      <trkpt lat="48.62736" lon="1.34925">
        <ele>171</ele>
        <time>2022-01-18T10:25:50Z</time>
      </trkpt>
      <trkpt lat="48.62706" lon="1.34945">
        <ele>172</ele>
        <time>2022-01-18T10:25:56Z</time>
      </trkpt>
      <trkpt lat="48.62637" lon="1.3498">
        <ele>173</ele>
        <time>2022-01-18T10:26:09Z</time>
      </trkpt>
      <trkpt lat="48.62511" lon="1.35034">
        <ele>174</ele>
        <time>2022-01-18T10:26:32Z</time>
      </trkpt>
      <trkpt lat="48.62466" lon="1.35052">
        <ele>174</ele>
        <time>2022-01-18T10:26:41Z</time>
      </trkpt>
      <trkpt lat="48.62408" lon="1.35066">
        <ele>174</ele>
        <time>2022-01-18T10:26:51Z</time>
      </trkpt>
      <trkpt lat="48.62366" lon="1.35087">
        <ele>175</ele>
        <time>2022-01-18T10:26:59Z</time>
      </trkpt>
      <trkpt lat="48.62344" lon="1.35106">
        <ele>176</ele>
        <time>2022-01-18T10:27:03Z</time>
      </trkpt>
      <trkpt lat="48.62329" lon="1.35128">
        <ele>176</ele>
        <time>2022-01-18T10:27:07Z</time>
      </trkpt>
      <trkpt lat="48.62318" lon="1.35153">
        <ele>176</ele>
        <time>2022-01-18T10:27:11Z</time>
      </trkpt>
      <trkpt lat="48.62294" lon="1.35219">
        <ele>177</ele>
        <time>2022-01-18T10:27:19Z</time>
      </trkpt>
      <trkpt lat="48.62271" lon="1.35294">
        <ele>178</ele>
        <time>2022-01-18T10:27:29Z</time>
      </trkpt>
      <trkpt lat="48.6225" lon="1.35366">
        <ele>179</ele>
        <time>2022-01-18T10:27:38Z</time>
      </trkpt>
      <trkpt lat="48.62237" lon="1.35417">
        <ele>178</ele>
        <time>2022-01-18T10:27:45Z</time>
      </trkpt>
      <trkpt lat="48.62203" lon="1.35578">
        <ele>179</ele>
        <time>2022-01-18T10:28:05Z</time>
      </trkpt>
      <trkpt lat="48.62195" lon="1.35608">
        <ele>179</ele>
        <time>2022-01-18T10:28:09Z</time>
      </trkpt>
      <trkpt lat="48.62187" lon="1.35633">
        <ele>179</ele>
        <time>2022-01-18T10:28:12Z</time>
      </trkpt>
      <trkpt lat="48.62175" lon="1.35658">
        <ele>179</ele>
        <time>2022-01-18T10:28:15Z</time>
      </trkpt>
      <trkpt lat="48.62151" lon="1.35698">
        <ele>179</ele>
        <time>2022-01-18T10:28:22Z</time>
      </trkpt>
      <trkpt lat="48.62058" lon="1.35839">
        <ele>181</ele>
        <time>2022-01-18T10:28:45Z</time>
      </trkpt>
      <trkpt lat="48.62012" lon="1.35902">
        <ele>182</ele>
        <time>2022-01-18T10:28:56Z</time>
      </trkpt>
      <trkpt lat="48.61971" lon="1.3595">
        <ele>181</ele>
        <time>2022-01-18T10:29:05Z</time>
      </trkpt>
      <trkpt lat="48.61919" lon="1.36006">
        <ele>181</ele>
        <time>2022-01-18T10:29:17Z</time>
      </trkpt>
      <trkpt lat="48.61834" lon="1.36092">
        <ele>181</ele>
        <time>2022-01-18T10:29:35Z</time>
      </trkpt>
      <trkpt lat="48.61723" lon="1.36196">
        <ele>181</ele>
        <time>2022-01-18T10:29:58Z</time>
      </trkpt>
      <trkpt lat="48.61655" lon="1.36256">
        <ele>180</ele>
        <time>2022-01-18T10:30:12Z</time>
      </trkpt>
      <trkpt lat="48.61614" lon="1.36289">
        <ele>180</ele>
        <time>2022-01-18T10:30:21Z</time>
      </trkpt>
      <trkpt lat="48.61535" lon="1.36344">
        <ele>181</ele>
        <time>2022-01-18T10:30:36Z</time>
      </trkpt>
      <trkpt lat="48.61426" lon="1.36425">
        <ele>181</ele>
        <time>2022-01-18T10:30:58Z</time>
      </trkpt>
      <trkpt lat="48.61246" lon="1.36611">
        <ele>186</ele>
        <time>2022-01-18T10:31:36Z</time>
      </trkpt>
      <trkpt lat="48.61098" lon="1.36788">
        <ele>187</ele>
        <time>2022-01-18T10:32:10Z</time>
      </trkpt>
      <trkpt lat="48.60727" lon="1.3724">
        <ele>190</ele>
        <time>2022-01-18T10:33:35Z</time>
      </trkpt>
      <trkpt lat="48.60603" lon="1.37399">
        <ele>191</ele>
        <time>2022-01-18T10:34:04Z</time>
      </trkpt>
      <trkpt lat="48.60304" lon="1.37855">
        <ele>191</ele>
        <time>2022-01-18T10:35:19Z</time>
      </trkpt>
      <trkpt lat="48.6028" lon="1.3789">
        <ele>190</ele>
        <time>2022-01-18T10:35:25Z</time>
      </trkpt>
      <trkpt lat="48.60276" lon="1.379">
        <ele>190</ele>
        <time>2022-01-18T10:35:27Z</time>
      </trkpt>
      <trkpt lat="48.60226" lon="1.37933">
        <ele>190</ele>
        <time>2022-01-18T10:35:36Z</time>
      </trkpt>
      <trkpt lat="48.602" lon="1.37947">
        <ele>190</ele>
        <time>2022-01-18T10:35:41Z</time>
      </trkpt>
      <trkpt lat="48.60118" lon="1.37994">
        <ele>190</ele>
        <time>2022-01-18T10:35:57Z</time>
      </trkpt>
      <trkpt lat="48.60064" lon="1.38031">
        <ele>190</ele>
        <time>2022-01-18T10:36:07Z</time>
      </trkpt>
      <trkpt lat="48.60055" lon="1.38034">
        <ele>190</ele>
        <time>2022-01-18T10:36:09Z</time>
      </trkpt>
      <trkpt lat="48.60052" lon="1.38072">
        <ele>191</ele>
        <time>2022-01-18T10:36:13Z</time>
      </trkpt>
      <trkpt lat="48.60043" lon="1.38103">
        <ele>191</ele>
        <time>2022-01-18T10:36:17Z</time>
      </trkpt>
      <trkpt lat="48.59995" lon="1.38248">
        <ele>192</ele>
        <time>2022-01-18T10:36:37Z</time>
      </trkpt>
      <trkpt lat="48.59985" lon="1.38284">
        <ele>192</ele>
        <time>2022-01-18T10:36:41Z</time>
      </trkpt>
      <trkpt lat="48.59966" lon="1.3828">
        <ele>192</ele>
        <time>2022-01-18T10:36:45Z</time>
      </trkpt>
      <trkpt lat="48.5995" lon="1.3828">
        <ele>192</ele>
        <time>2022-01-18T10:36:47Z</time>
      </trkpt>
      <trkpt lat="48.59918" lon="1.38306">
        <ele>193</ele>
        <time>2022-01-18T10:36:54Z</time>
      </trkpt>
      <trkpt lat="48.59895" lon="1.3833">
        <ele>193</ele>
        <time>2022-01-18T10:36:59Z</time>
      </trkpt>
      <trkpt lat="48.59889" lon="1.38342">
        <ele>193</ele>
        <time>2022-01-18T10:37:01Z</time>
      </trkpt>
      <trkpt lat="48.59884" lon="1.3836">
        <ele>193</ele>
        <time>2022-01-18T10:37:03Z</time>
      </trkpt>
      <trkpt lat="48.59879" lon="1.38394">
        <ele>194</ele>
        <time>2022-01-18T10:37:07Z</time>
      </trkpt>
      <trkpt lat="48.59826" lon="1.38396">
        <ele>193</ele>
        <time>2022-01-18T10:37:16Z</time>
      </trkpt>
      <trkpt lat="48.59747" lon="1.38406">
        <ele>192</ele>
        <time>2022-01-18T10:37:31Z</time>
      </trkpt>
      <trkpt lat="48.59751" lon="1.38519">
        <ele>193</ele>
        <time>2022-01-18T10:37:44Z</time>
      </trkpt>
      <trkpt lat="48.59754" lon="1.38547">
        <ele>193</ele>
        <time>2022-01-18T10:37:47Z</time>
      </trkpt>
      <trkpt lat="48.5976" lon="1.38577">
        <ele>193</ele>
        <time>2022-01-18T10:37:51Z</time>
      </trkpt>
      <trkpt lat="48.59893" lon="1.38878">
        <ele>191</ele>
        <time>2022-01-18T10:38:33Z</time>
      </trkpt>
      <trkpt lat="48.59896" lon="1.38889">
        <ele>191</ele>
        <time>2022-01-18T10:38:35Z</time>
      </trkpt>
      <trkpt lat="48.59896" lon="1.38902">
        <ele>191</ele>
        <time>2022-01-18T10:38:36Z</time>
      </trkpt>
      <trkpt lat="48.59894" lon="1.38913">
        <ele>191</ele>
        <time>2022-01-18T10:38:38Z</time>
      </trkpt>
      <trkpt lat="48.59891" lon="1.38923">
        <ele>191</ele>
        <time>2022-01-18T10:38:39Z</time>
      </trkpt>
      <trkpt lat="48.59849" lon="1.3899">
        <ele>190</ele>
        <time>2022-01-18T10:38:50Z</time>
      </trkpt>
      <trkpt lat="48.59824" lon="1.39022">
        <ele>189</ele>
        <time>2022-01-18T10:38:56Z</time>
      </trkpt>
      <trkpt lat="48.59751" lon="1.39139">
        <ele>187</ele>
        <time>2022-01-18T10:39:15Z</time>
      </trkpt>
      <trkpt lat="48.59737" lon="1.3917">
        <ele>187</ele>
        <time>2022-01-18T10:39:19Z</time>
      </trkpt>
      <trkpt lat="48.59729" lon="1.39211">
        <ele>188</ele>
        <time>2022-01-18T10:39:24Z</time>
      </trkpt>
      <trkpt lat="48.59729" lon="1.39251">
        <ele>189</ele>
        <time>2022-01-18T10:39:29Z</time>
      </trkpt>
      <trkpt lat="48.59733" lon="1.39274">
        <ele>189</ele>
        <time>2022-01-18T10:39:32Z</time>
      </trkpt>
      <trkpt lat="48.59737" lon="1.39288">
        <ele>190</ele>
        <time>2022-01-18T10:39:33Z</time>
      </trkpt>
      <trkpt lat="48.59751" lon="1.39324">
        <ele>190</ele>
        <time>2022-01-18T10:39:38Z</time>
      </trkpt>
      <trkpt lat="48.59771" lon="1.39357">
        <ele>189</ele>
        <time>2022-01-18T10:39:44Z</time>
      </trkpt>
      <trkpt lat="48.59901" lon="1.39591">
        <ele>189</ele>
        <time>2022-01-18T10:40:20Z</time>
      </trkpt>
      <trkpt lat="48.59931" lon="1.39658">
        <ele>189</ele>
        <time>2022-01-18T10:40:29Z</time>
      </trkpt>
      <trkpt lat="48.59948" lon="1.39718">
        <ele>189</ele>
        <time>2022-01-18T10:40:37Z</time>
      </trkpt>
      <trkpt lat="48.59958" lon="1.39779">
        <ele>189</ele>
        <time>2022-01-18T10:40:44Z</time>
      </trkpt>
      <trkpt lat="48.59984" lon="1.40029">
        <ele>186</ele>
        <time>2022-01-18T10:41:14Z</time>
      </trkpt>
      <trkpt lat="48.60001" lon="1.40172">
        <ele>185</ele>
        <time>2022-01-18T10:41:31Z</time>
      </trkpt>
      <trkpt lat="48.60035" lon="1.40357">
        <ele>183</ele>
        <time>2022-01-18T10:41:54Z</time>
      </trkpt>
      <trkpt lat="48.6007" lon="1.40531">
        <ele>181</ele>
        <time>2022-01-18T10:42:15Z</time>
      </trkpt>
      <trkpt lat="48.60125" lon="1.40742">
        <ele>180</ele>
        <time>2022-01-18T10:42:42Z</time>
      </trkpt>
      <trkpt lat="48.60123" lon="1.40747">
        <ele>180</ele>
        <time>2022-01-18T10:42:42Z</time>
      </trkpt>
      <trkpt lat="48.60121" lon="1.40762">
        <ele>180</ele>
        <time>2022-01-18T10:42:44Z</time>
      </trkpt>
      <trkpt lat="48.60121" lon="1.40857">
        <ele>181</ele>
        <time>2022-01-18T10:42:55Z</time>
      </trkpt>
      <trkpt lat="48.60118" lon="1.40919">
        <ele>182</ele>
        <time>2022-01-18T10:43:03Z</time>
      </trkpt>
      <trkpt lat="48.60107" lon="1.40992">
        <ele>184</ele>
        <time>2022-01-18T10:43:11Z</time>
      </trkpt>
      <trkpt lat="48.60083" lon="1.41104">
        <ele>185</ele>
        <time>2022-01-18T10:43:25Z</time>
      </trkpt>
      <trkpt lat="48.60069" lon="1.41185">
        <ele>184</ele>
        <time>2022-01-18T10:43:35Z</time>
      </trkpt>
      <trkpt lat="48.6006" lon="1.41272">
        <ele>184</ele>
        <time>2022-01-18T10:43:46Z</time>
      </trkpt>
      <trkpt lat="48.60048" lon="1.41356">
        <ele>184</ele>
        <time>2022-01-18T10:43:56Z</time>
      </trkpt>
      <trkpt lat="48.60038" lon="1.41404">
        <ele>184</ele>
        <time>2022-01-18T10:44:02Z</time>
      </trkpt>
      <trkpt lat="48.59987" lon="1.41519">
        <ele>184</ele>
        <time>2022-01-18T10:44:18Z</time>
      </trkpt>
      <trkpt lat="48.59927" lon="1.41687">
        <ele>183</ele>
        <time>2022-01-18T10:44:40Z</time>
      </trkpt>
      <trkpt lat="48.59884" lon="1.41771">
        <ele>183</ele>
        <time>2022-01-18T10:44:53Z</time>
      </trkpt>
      <trkpt lat="48.59816" lon="1.41883">
        <ele>180</ele>
        <time>2022-01-18T10:45:11Z</time>
      </trkpt>
      <trkpt lat="48.59743" lon="1.42011">
        <ele>177</ele>
        <time>2022-01-18T10:45:31Z</time>
      </trkpt>
      <trkpt lat="48.59695" lon="1.42111">
        <ele>177</ele>
        <time>2022-01-18T10:45:45Z</time>
      </trkpt>
      <trkpt lat="48.59647" lon="1.42241">
        <ele>178</ele>
        <time>2022-01-18T10:46:03Z</time>
      </trkpt>
      <trkpt lat="48.59637" lon="1.42277">
        <ele>179</ele>
        <time>2022-01-18T10:46:07Z</time>
      </trkpt>
      <trkpt lat="48.59629" lon="1.42318">
        <ele>180</ele>
        <time>2022-01-18T10:46:12Z</time>
      </trkpt>
      <trkpt lat="48.59627" lon="1.4234">
        <ele>181</ele>
        <time>2022-01-18T10:46:15Z</time>
      </trkpt>
      <trkpt lat="48.59621" lon="1.42433">
        <ele>182</ele>
        <time>2022-01-18T10:46:26Z</time>
      </trkpt>
      <trkpt lat="48.59618" lon="1.42526">
        <ele>182</ele>
        <time>2022-01-18T10:46:37Z</time>
      </trkpt>
      <trkpt lat="48.5962" lon="1.4258">
        <ele>182</ele>
        <time>2022-01-18T10:46:43Z</time>
      </trkpt>
      <trkpt lat="48.59629" lon="1.42683">
        <ele>181</ele>
        <time>2022-01-18T10:46:55Z</time>
      </trkpt>
      <trkpt lat="48.59656" lon="1.4281">
        <ele>181</ele>
        <time>2022-01-18T10:47:11Z</time>
      </trkpt>
      <trkpt lat="48.59681" lon="1.42898">
        <ele>180</ele>
        <time>2022-01-18T10:47:22Z</time>
      </trkpt>
      <trkpt lat="48.59706" lon="1.42953">
        <ele>180</ele>
        <time>2022-01-18T10:47:30Z</time>
      </trkpt>
      <trkpt lat="48.59843" lon="1.43261">
        <ele>177</ele>
        <time>2022-01-18T10:48:14Z</time>
      </trkpt>
      <trkpt lat="48.59877" lon="1.43331">
        <ele>178</ele>
        <time>2022-01-18T10:48:24Z</time>
      </trkpt>
      <trkpt lat="48.59884" lon="1.4335">
        <ele>178</ele>
        <time>2022-01-18T10:48:27Z</time>
      </trkpt>
      <trkpt lat="48.59879" lon="1.43362">
        <ele>178</ele>
        <time>2022-01-18T10:48:28Z</time>
      </trkpt>
      <trkpt lat="48.59838" lon="1.43401">
        <ele>178</ele>
        <time>2022-01-18T10:48:37Z</time>
      </trkpt>
      <trkpt lat="48.59802" lon="1.43429">
        <ele>177</ele>
        <time>2022-01-18T10:48:44Z</time>
      </trkpt>
      <trkpt lat="48.59728" lon="1.43467">
        <ele>176</ele>
        <time>2022-01-18T10:48:58Z</time>
      </trkpt>
      <trkpt lat="48.59742" lon="1.43535">
        <ele>176</ele>
        <time>2022-01-18T10:49:07Z</time>
      </trkpt>
      <trkpt lat="48.59747" lon="1.43576">
        <ele>176</ele>
        <time>2022-01-18T10:49:11Z</time>
      </trkpt>
      <trkpt lat="48.59747" lon="1.43627">
        <ele>175</ele>
        <time>2022-01-18T10:49:17Z</time>
      </trkpt>
      <trkpt lat="48.59746" lon="1.43657">
        <ele>174</ele>
        <time>2022-01-18T10:49:21Z</time>
      </trkpt>
      <trkpt lat="48.59734" lon="1.43691">
        <ele>174</ele>
        <time>2022-01-18T10:49:25Z</time>
      </trkpt>
      <trkpt lat="48.59732" lon="1.43705">
        <ele>174</ele>
        <time>2022-01-18T10:49:27Z</time>
      </trkpt>
      <trkpt lat="48.59712" lon="1.43727">
        <ele>174</ele>
        <time>2022-01-18T10:49:32Z</time>
      </trkpt>
      <trkpt lat="48.59674" lon="1.4374">
        <ele>174</ele>
        <time>2022-01-18T10:49:38Z</time>
      </trkpt>
      <trkpt lat="48.59662" lon="1.43741">
        <ele>174</ele>
        <time>2022-01-18T10:49:41Z</time>
      </trkpt>
      <trkpt lat="48.59613" lon="1.43759">
        <ele>175</ele>
        <time>2022-01-18T10:49:50Z</time>
      </trkpt>
      <trkpt lat="48.59606" lon="1.43766">
        <ele>175</ele>
        <time>2022-01-18T10:49:51Z</time>
      </trkpt>
      <trkpt lat="48.59599" lon="1.43774">
        <ele>175</ele>
        <time>2022-01-18T10:49:53Z</time>
      </trkpt>
      <trkpt lat="48.59595" lon="1.43784">
        <ele>175</ele>
        <time>2022-01-18T10:49:54Z</time>
      </trkpt>
      <trkpt lat="48.59592" lon="1.43809">
        <ele>174</ele>
        <time>2022-01-18T10:49:57Z</time>
      </trkpt>
      <trkpt lat="48.59592" lon="1.43834">
        <ele>173</ele>
        <time>2022-01-18T10:50:00Z</time>
      </trkpt>
      <trkpt lat="48.59595" lon="1.43866">
        <ele>173</ele>
        <time>2022-01-18T10:50:04Z</time>
      </trkpt>
      <trkpt lat="48.59595" lon="1.43908">
        <ele>172</ele>
        <time>2022-01-18T10:50:09Z</time>
      </trkpt>
      <trkpt lat="48.59593" lon="1.43936">
        <ele>172</ele>
        <time>2022-01-18T10:50:12Z</time>
      </trkpt>
      <trkpt lat="48.59587" lon="1.4397">
        <ele>173</ele>
        <time>2022-01-18T10:50:16Z</time>
      </trkpt>
      <trkpt lat="48.59576" lon="1.44001">
        <ele>173</ele>
        <time>2022-01-18T10:50:20Z</time>
      </trkpt>
      <trkpt lat="48.59561" lon="1.44034">
        <ele>173</ele>
        <time>2022-01-18T10:50:25Z</time>
      </trkpt>
      <trkpt lat="48.59517" lon="1.44106">
        <ele>171</ele>
        <time>2022-01-18T10:50:37Z</time>
      </trkpt>
      <trkpt lat="48.59498" lon="1.4415">
        <ele>170</ele>
        <time>2022-01-18T10:50:43Z</time>
      </trkpt>
      <trkpt lat="48.59486" lon="1.44194">
        <ele>170</ele>
        <time>2022-01-18T10:50:48Z</time>
      </trkpt>
      <trkpt lat="48.59465" lon="1.44305">
        <ele>169</ele>
        <time>2022-01-18T10:51:02Z</time>
      </trkpt>
      <trkpt lat="48.59453" lon="1.4445">
        <ele>167</ele>
        <time>2022-01-18T10:51:19Z</time>
      </trkpt>
      <trkpt lat="48.59453" lon="1.44591">
        <ele>166</ele>
        <time>2022-01-18T10:51:36Z</time>
      </trkpt>
      <trkpt lat="48.59451" lon="1.44638">
        <ele>166</ele>
        <time>2022-01-18T10:51:41Z</time>
      </trkpt>
      <trkpt lat="48.59435" lon="1.44751">
        <ele>166</ele>
        <time>2022-01-18T10:51:55Z</time>
      </trkpt>
      <trkpt lat="48.59436" lon="1.44775">
        <ele>166</ele>
        <time>2022-01-18T10:51:58Z</time>
      </trkpt>
      <trkpt lat="48.59444" lon="1.44809">
        <ele>166</ele>
        <time>2022-01-18T10:52:02Z</time>
      </trkpt>
      <trkpt lat="48.59452" lon="1.44853">
        <ele>166</ele>
        <time>2022-01-18T10:52:07Z</time>
      </trkpt>
      <trkpt lat="48.59454" lon="1.44877">
        <ele>166</ele>
        <time>2022-01-18T10:52:10Z</time>
      </trkpt>
      <trkpt lat="48.59451" lon="1.44887">
        <ele>166</ele>
        <time>2022-01-18T10:52:11Z</time>
      </trkpt>
      <trkpt lat="48.59447" lon="1.44896">
        <ele>166</ele>
        <time>2022-01-18T10:52:13Z</time>
      </trkpt>
      <trkpt lat="48.59376" lon="1.44975">
        <ele>165</ele>
        <time>2022-01-18T10:52:28Z</time>
      </trkpt>
      <trkpt lat="48.59315" lon="1.45032">
        <ele>164</ele>
        <time>2022-01-18T10:52:41Z</time>
      </trkpt>
      <trkpt lat="48.59286" lon="1.4507">
        <ele>163</ele>
        <time>2022-01-18T10:52:48Z</time>
      </trkpt>
      <trkpt lat="48.59276" lon="1.45086">
        <ele>162</ele>
        <time>2022-01-18T10:52:51Z</time>
      </trkpt>
      <trkpt lat="48.59262" lon="1.45122">
        <ele>162</ele>
        <time>2022-01-18T10:52:56Z</time>
      </trkpt>
      <trkpt lat="48.59241" lon="1.452">
        <ele>162</ele>
        <time>2022-01-18T10:53:05Z</time>
      </trkpt>
      <trkpt lat="48.59192" lon="1.4539">
        <ele>162</ele>
        <time>2022-01-18T10:53:29Z</time>
      </trkpt>
      <trkpt lat="48.5918" lon="1.45447">
        <ele>162</ele>
        <time>2022-01-18T10:53:36Z</time>
      </trkpt>
      <trkpt lat="48.5917" lon="1.45514">
        <ele>160</ele>
        <time>2022-01-18T10:53:45Z</time>
      </trkpt>
      <trkpt lat="48.59164" lon="1.45567">
        <ele>160</ele>
        <time>2022-01-18T10:53:51Z</time>
      </trkpt>
      <trkpt lat="48.59163" lon="1.45604">
        <ele>159</ele>
        <time>2022-01-18T10:53:55Z</time>
      </trkpt>
      <trkpt lat="48.59166" lon="1.45689">
        <ele>158</ele>
        <time>2022-01-18T10:54:05Z</time>
      </trkpt>
      <trkpt lat="48.59172" lon="1.4579">
        <ele>157</ele>
        <time>2022-01-18T10:54:17Z</time>
      </trkpt>
      <trkpt lat="48.59173" lon="1.45858">
        <ele>156</ele>
        <time>2022-01-18T10:54:25Z</time>
      </trkpt>
      <trkpt lat="48.59154" lon="1.46049">
        <ele>154</ele>
        <time>2022-01-18T10:54:48Z</time>
      </trkpt>
      <trkpt lat="48.59143" lon="1.46104">
        <ele>154</ele>
        <time>2022-01-18T10:54:55Z</time>
      </trkpt>
      <trkpt lat="48.59133" lon="1.46142">
        <ele>154</ele>
        <time>2022-01-18T10:54:59Z</time>
      </trkpt>
      <trkpt lat="48.59076" lon="1.46323">
        <ele>155</ele>
        <time>2022-01-18T10:55:23Z</time>
      </trkpt>
      <trkpt lat="48.59051" lon="1.46417">
        <ele>156</ele>
        <time>2022-01-18T10:55:35Z</time>
      </trkpt>
      <trkpt lat="48.5904" lon="1.46473">
        <ele>156</ele>
        <time>2022-01-18T10:55:42Z</time>
      </trkpt>
      <trkpt lat="48.59027" lon="1.46562">
        <ele>157</ele>
        <time>2022-01-18T10:55:53Z</time>
      </trkpt>
      <trkpt lat="48.59019" lon="1.46601">
        <ele>157</ele>
        <time>2022-01-18T10:55:57Z</time>
      </trkpt>
      <trkpt lat="48.59006" lon="1.46641">
        <ele>158</ele>
        <time>2022-01-18T10:56:03Z</time>
      </trkpt>
      <trkpt lat="48.5899" lon="1.46669">
        <ele>158</ele>
        <time>2022-01-18T10:56:07Z</time>
      </trkpt>
      <trkpt lat="48.58948" lon="1.46726">
        <ele>158</ele>
        <time>2022-01-18T10:56:17Z</time>
      </trkpt>
      <trkpt lat="48.58943" lon="1.4674">
        <ele>158</ele>
        <time>2022-01-18T10:56:19Z</time>
      </trkpt>
      <trkpt lat="48.58962" lon="1.46854">
        <ele>157</ele>
        <time>2022-01-18T10:56:33Z</time>
      </trkpt>
      <trkpt lat="48.5897" lon="1.46933">
        <ele>157</ele>
        <time>2022-01-18T10:56:42Z</time>
      </trkpt>
      <trkpt lat="48.59022" lon="1.47258">
        <ele>156</ele>
        <time>2022-01-18T10:57:22Z</time>
      </trkpt>
      <trkpt lat="48.59029" lon="1.47321">
        <ele>155</ele>
        <time>2022-01-18T10:57:29Z</time>
      </trkpt>
      <trkpt lat="48.59037" lon="1.47429">
        <ele>155</ele>
        <time>2022-01-18T10:57:42Z</time>
      </trkpt>
      <trkpt lat="48.59041" lon="1.47501">
        <ele>153</ele>
        <time>2022-01-18T10:57:50Z</time>
      </trkpt>
      <trkpt lat="48.59042" lon="1.47606">
        <ele>153</ele>
        <time>2022-01-18T10:58:03Z</time>
      </trkpt>
      <trkpt lat="48.5904" lon="1.47749">
        <ele>154</ele>
        <time>2022-01-18T10:58:20Z</time>
      </trkpt>
      <trkpt lat="48.59036" lon="1.47893">
        <ele>155</ele>
        <time>2022-01-18T10:58:36Z</time>
      </trkpt>
      <trkpt lat="48.59036" lon="1.48176">
        <ele>154</ele>
        <time>2022-01-18T10:59:10Z</time>
      </trkpt>
      <trkpt lat="48.59038" lon="1.48219">
        <ele>154</ele>
        <time>2022-01-18T10:59:15Z</time>
      </trkpt>
      <trkpt lat="48.59044" lon="1.48252">
        <ele>154</ele>
        <time>2022-01-18T10:59:19Z</time>
      </trkpt>
      <trkpt lat="48.59063" lon="1.48331">
        <ele>154</ele>
        <time>2022-01-18T10:59:29Z</time>
      </trkpt>
      <trkpt lat="48.59074" lon="1.48389">
        <ele>153</ele>
        <time>2022-01-18T10:59:36Z</time>
      </trkpt>
      <trkpt lat="48.59078" lon="1.4842">
        <ele>153</ele>
        <time>2022-01-18T10:59:40Z</time>
      </trkpt>
      <trkpt lat="48.59085" lon="1.48547">
        <ele>150</ele>
        <time>2022-01-18T10:59:55Z</time>
      </trkpt>
      <trkpt lat="48.59107" lon="1.48804">
        <ele>146</ele>
        <time>2022-01-18T11:00:25Z</time>
      </trkpt>
      <trkpt lat="48.59108" lon="1.48853">
        <ele>146</ele>
        <time>2022-01-18T11:00:31Z</time>
      </trkpt>
      <trkpt lat="48.59091" lon="1.49001">
        <ele>145</ele>
        <time>2022-01-18T11:00:49Z</time>
      </trkpt>
      <trkpt lat="48.59087" lon="1.49026">
        <ele>145</ele>
        <time>2022-01-18T11:00:52Z</time>
      </trkpt>
      <trkpt lat="48.59088" lon="1.49045">
        <ele>144</ele>
        <time>2022-01-18T11:00:54Z</time>
      </trkpt>
      <trkpt lat="48.59097" lon="1.4908">
        <ele>144</ele>
        <time>2022-01-18T11:00:58Z</time>
      </trkpt>
      <trkpt lat="48.59114" lon="1.49134">
        <ele>142</ele>
        <time>2022-01-18T11:01:05Z</time>
      </trkpt>
      <trkpt lat="48.59119" lon="1.49178">
        <ele>141</ele>
        <time>2022-01-18T11:01:11Z</time>
      </trkpt>
      <trkpt lat="48.5912" lon="1.49234">
        <ele>139</ele>
        <time>2022-01-18T11:01:17Z</time>
      </trkpt>
      <trkpt lat="48.59092" lon="1.49264">
        <ele>139</ele>
        <time>2022-01-18T11:01:23Z</time>
      </trkpt>
      <trkpt lat="48.59066" lon="1.49296">
        <ele>138</ele>
        <time>2022-01-18T11:01:29Z</time>
      </trkpt>
      <trkpt lat="48.59051" lon="1.49326">
        <ele>136</ele>
        <time>2022-01-18T11:01:34Z</time>
      </trkpt>
      <trkpt lat="48.58994" lon="1.4946">
        <ele>134</ele>
        <time>2022-01-18T11:01:52Z</time>
      </trkpt>
      <trkpt lat="48.5898" lon="1.49485">
        <ele>134</ele>
        <time>2022-01-18T11:01:56Z</time>
      </trkpt>
      <trkpt lat="48.58956" lon="1.49513">
        <ele>135</ele>
        <time>2022-01-18T11:02:02Z</time>
      </trkpt>
      <trkpt lat="48.58908" lon="1.49562">
        <ele>135</ele>
        <time>2022-01-18T11:02:12Z</time>
      </trkpt>
      <trkpt lat="48.58889" lon="1.49596">
        <ele>134</ele>
        <time>2022-01-18T11:02:17Z</time>
      </trkpt>
      <trkpt lat="48.58836" lon="1.49736">
        <ele>128</ele>
        <time>2022-01-18T11:02:36Z</time>
      </trkpt>
      <trkpt lat="48.58824" lon="1.49761">
        <ele>126</ele>
        <time>2022-01-18T11:02:40Z</time>
      </trkpt>
      <trkpt lat="48.58811" lon="1.49774">
        <ele>126</ele>
        <time>2022-01-18T11:02:43Z</time>
      </trkpt>
      <trkpt lat="48.58803" lon="1.4979">
        <ele>125</ele>
        <time>2022-01-18T11:02:45Z</time>
      </trkpt>
      <trkpt lat="48.58797" lon="1.49809">
        <ele>125</ele>
        <time>2022-01-18T11:02:47Z</time>
      </trkpt>
      <trkpt lat="48.58795" lon="1.4983">
        <ele>124</ele>
        <time>2022-01-18T11:02:50Z</time>
      </trkpt>
      <trkpt lat="48.58789" lon="1.49851">
        <ele>124</ele>
        <time>2022-01-18T11:02:53Z</time>
      </trkpt>
      <trkpt lat="48.58775" lon="1.49863">
        <ele>124</ele>
        <time>2022-01-18T11:02:55Z</time>
      </trkpt>
      <trkpt lat="48.58758" lon="1.49865">
        <ele>123</ele>
        <time>2022-01-18T11:02:58Z</time>
      </trkpt>
      <trkpt lat="48.5874" lon="1.49863">
        <ele>123</ele>
        <time>2022-01-18T11:03:02Z</time>
      </trkpt>
      <trkpt lat="48.58726" lon="1.49866">
        <ele>123</ele>
        <time>2022-01-18T11:03:04Z</time>
      </trkpt>
      <trkpt lat="48.58701" lon="1.49884">
        <ele>123</ele>
        <time>2022-01-18T11:03:09Z</time>
      </trkpt>
      <trkpt lat="48.58661" lon="1.49921">
        <ele>123</ele>
        <time>2022-01-18T11:03:17Z</time>
      </trkpt>
      <trkpt lat="48.58578" lon="1.49983">
        <ele>124</ele>
        <time>2022-01-18T11:03:34Z</time>
      </trkpt>
      <trkpt lat="48.58535" lon="1.50007">
        <ele>124</ele>
        <time>2022-01-18T11:03:42Z</time>
      </trkpt>
      <trkpt lat="48.58502" lon="1.50013">
        <ele>123</ele>
        <time>2022-01-18T11:03:48Z</time>
      </trkpt>
      <trkpt lat="48.58468" lon="1.50013">
        <ele>123</ele>
        <time>2022-01-18T11:03:54Z</time>
      </trkpt>
      <trkpt lat="48.58409" lon="1.50009">
        <ele>123</ele>
        <time>2022-01-18T11:04:05Z</time>
      </trkpt>
      <trkpt lat="48.58347" lon="1.4998">
        <ele>123</ele>
        <time>2022-01-18T11:04:16Z</time>
      </trkpt>
      <trkpt lat="48.58327" lon="1.49977">
        <ele>123</ele>
        <time>2022-01-18T11:04:20Z</time>
      </trkpt>
      <trkpt lat="48.58305" lon="1.49984">
        <ele>123</ele>
        <time>2022-01-18T11:04:24Z</time>
      </trkpt>
      <trkpt lat="48.58278" lon="1.50003">
        <ele>125</ele>
        <time>2022-01-18T11:04:29Z</time>
      </trkpt>
      <trkpt lat="48.58216" lon="1.50078">
        <ele>131</ele>
        <time>2022-01-18T11:04:43Z</time>
      </trkpt>
      <trkpt lat="48.58168" lon="1.50124">
        <ele>134</ele>
        <time>2022-01-18T11:04:53Z</time>
      </trkpt>
      <trkpt lat="48.58113" lon="1.50145">
        <ele>135</ele>
        <time>2022-01-18T11:05:03Z</time>
      </trkpt>
      <trkpt lat="48.58001" lon="1.50182">
        <ele>137</ele>
        <time>2022-01-18T11:05:24Z</time>
      </trkpt>
      <trkpt lat="48.57978" lon="1.50197">
        <ele>135</ele>
        <time>2022-01-18T11:05:28Z</time>
      </trkpt>
      <trkpt lat="48.5794" lon="1.5023">
        <ele>133</ele>
        <time>2022-01-18T11:05:36Z</time>
      </trkpt>
      <trkpt lat="48.5791" lon="1.5025">
        <ele>130</ele>
        <time>2022-01-18T11:05:42Z</time>
      </trkpt>
      <trkpt lat="48.57879" lon="1.50264">
        <ele>129</ele>
        <time>2022-01-18T11:05:48Z</time>
      </trkpt>
      <trkpt lat="48.57853" lon="1.50288">
        <ele>128</ele>
        <time>2022-01-18T11:05:53Z</time>
      </trkpt>
      <trkpt lat="48.57792" lon="1.50339">
        <ele>127</ele>
        <time>2022-01-18T11:06:05Z</time>
      </trkpt>
      <trkpt lat="48.57678" lon="1.50402">
        <ele>125</ele>
        <time>2022-01-18T11:06:27Z</time>
      </trkpt>
      <trkpt lat="48.57638" lon="1.50444">
        <ele>127</ele>
        <time>2022-01-18T11:06:36Z</time>
      </trkpt>
      <trkpt lat="48.57568" lon="1.50526">
        <ele>130</ele>
        <time>2022-01-18T11:06:51Z</time>
      </trkpt>
      <trkpt lat="48.57464" lon="1.50636">
        <ele>131</ele>
        <time>2022-01-18T11:07:14Z</time>
      </trkpt>
      <trkpt lat="48.57377" lon="1.50735">
        <ele>134</ele>
        <time>2022-01-18T11:07:33Z</time>
      </trkpt>
      <trkpt lat="48.57334" lon="1.50774">
        <ele>136</ele>
        <time>2022-01-18T11:07:42Z</time>
      </trkpt>
      <trkpt lat="48.57293" lon="1.50801">
        <ele>138</ele>
        <time>2022-01-18T11:07:50Z</time>
      </trkpt>
      <trkpt lat="48.57229" lon="1.50835">
        <ele>142</ele>
        <time>2022-01-18T11:08:02Z</time>
      </trkpt>
      <trkpt lat="48.57205" lon="1.50845">
        <ele>144</ele>
        <time>2022-01-18T11:08:07Z</time>
      </trkpt>
      <trkpt lat="48.57175" lon="1.50853">
        <ele>146</ele>
        <time>2022-01-18T11:08:12Z</time>
      </trkpt>
      <trkpt lat="48.57098" lon="1.50865">
        <ele>144</ele>
        <time>2022-01-18T11:08:26Z</time>
      </trkpt>
      <trkpt lat="48.57061" lon="1.50874">
        <ele>144</ele>
        <time>2022-01-18T11:08:33Z</time>
      </trkpt>
      <trkpt lat="48.57019" lon="1.50908">
        <ele>148</ele>
        <time>2022-01-18T11:08:41Z</time>
      </trkpt>
      <trkpt lat="48.57042" lon="1.51006">
        <ele>147</ele>
        <time>2022-01-18T11:08:53Z</time>
      </trkpt>
      <trkpt lat="48.5705" lon="1.51048">
        <ele>146</ele>
        <time>2022-01-18T11:08:58Z</time>
      </trkpt>
      <trkpt lat="48.57052" lon="1.51167">
        <ele>144</ele>
        <time>2022-01-18T11:09:13Z</time>
      </trkpt>
      <trkpt lat="48.57055" lon="1.51198">
        <ele>144</ele>
        <time>2022-01-18T11:09:16Z</time>
      </trkpt>
      <trkpt lat="48.57065" lon="1.51254">
        <ele>144</ele>
        <time>2022-01-18T11:09:23Z</time>
      </trkpt>
      <trkpt lat="48.5709" lon="1.51372">
        <ele>145</ele>
        <time>2022-01-18T11:09:38Z</time>
      </trkpt>
      <trkpt lat="48.57097" lon="1.51395">
        <ele>145</ele>
        <time>2022-01-18T11:09:41Z</time>
      </trkpt>
      <trkpt lat="48.57107" lon="1.51418">
        <ele>145</ele>
        <time>2022-01-18T11:09:44Z</time>
      </trkpt>
      <trkpt lat="48.57176" lon="1.51507">
        <ele>144</ele>
        <time>2022-01-18T11:10:00Z</time>
      </trkpt>
      <trkpt lat="48.57207" lon="1.51536">
        <ele>144</ele>
        <time>2022-01-18T11:10:06Z</time>
      </trkpt>
      <trkpt lat="48.57278" lon="1.51593">
        <ele>145</ele>
        <time>2022-01-18T11:10:21Z</time>
      </trkpt>
      <trkpt lat="48.5729" lon="1.51605">
        <ele>146</ele>
        <time>2022-01-18T11:10:23Z</time>
      </trkpt>
      <trkpt lat="48.57327" lon="1.51648">
        <ele>148</ele>
        <time>2022-01-18T11:10:32Z</time>
      </trkpt>
      <trkpt lat="48.57358" lon="1.51706">
        <ele>151</ele>
        <time>2022-01-18T11:10:40Z</time>
      </trkpt>
      <trkpt lat="48.57386" lon="1.51794">
        <ele>153</ele>
        <time>2022-01-18T11:10:52Z</time>
      </trkpt>
      <trkpt lat="48.57486" lon="1.52121">
        <ele>151</ele>
        <time>2022-01-18T11:11:34Z</time>
      </trkpt>
      <trkpt lat="48.57537" lon="1.52297">
        <ele>152</ele>
        <time>2022-01-18T11:11:57Z</time>
      </trkpt>
      <trkpt lat="48.57593" lon="1.52516">
        <ele>151</ele>
        <time>2022-01-18T11:12:25Z</time>
      </trkpt>
      <trkpt lat="48.57637" lon="1.52673">
        <ele>150</ele>
        <time>2022-01-18T11:12:45Z</time>
      </trkpt>
      <trkpt lat="48.57659" lon="1.5276">
        <ele>149</ele>
        <time>2022-01-18T11:12:56Z</time>
      </trkpt>
      <trkpt lat="48.57721" lon="1.52936">
        <ele>150</ele>
        <time>2022-01-18T11:13:19Z</time>
      </trkpt>
      <trkpt lat="48.57769" lon="1.53054">
        <ele>153</ele>
        <time>2022-01-18T11:13:35Z</time>
      </trkpt>
      <trkpt lat="48.57808" lon="1.531">
        <ele>154</ele>
        <time>2022-01-18T11:13:44Z</time>
      </trkpt>
      <trkpt lat="48.57843" lon="1.53134">
        <ele>155</ele>
        <time>2022-01-18T11:13:52Z</time>
      </trkpt>
      <trkpt lat="48.57923" lon="1.53204">
        <ele>156</ele>
        <time>2022-01-18T11:14:08Z</time>
      </trkpt>
      <trkpt lat="48.57942" lon="1.53226">
        <ele>157</ele>
        <time>2022-01-18T11:14:12Z</time>
      </trkpt>
      <trkpt lat="48.5791" lon="1.53299">
        <ele>156</ele>
        <time>2022-01-18T11:14:23Z</time>
      </trkpt>
      <trkpt lat="48.57891" lon="1.53347">
        <ele>156</ele>
        <time>2022-01-18T11:14:29Z</time>
      </trkpt>
      <trkpt lat="48.57887" lon="1.53366">
        <ele>157</ele>
        <time>2022-01-18T11:14:32Z</time>
      </trkpt>
      <trkpt lat="48.57886" lon="1.5338">
        <ele>157</ele>
        <time>2022-01-18T11:14:33Z</time>
      </trkpt>
      <trkpt lat="48.57934" lon="1.53457">
        <ele>158</ele>
        <time>2022-01-18T11:14:46Z</time>
      </trkpt>
      <trkpt lat="48.57978" lon="1.53522">
        <ele>157</ele>
        <time>2022-01-18T11:14:57Z</time>
      </trkpt>
      <trkpt lat="48.57994" lon="1.53549">
        <ele>156</ele>
        <time>2022-01-18T11:15:01Z</time>
      </trkpt>
      <trkpt lat="48.58008" lon="1.53578">
        <ele>156</ele>
        <time>2022-01-18T11:15:05Z</time>
      </trkpt>
      <trkpt lat="48.58121" lon="1.53859">
        <ele>148</ele>
        <time>2022-01-18T11:15:44Z</time>
      </trkpt>
      <trkpt lat="48.58148" lon="1.5392">
        <ele>145</ele>
        <time>2022-01-18T11:15:52Z</time>
      </trkpt>
      <trkpt lat="48.58224" lon="1.54047">
        <ele>143</ele>
        <time>2022-01-18T11:16:13Z</time>
      </trkpt>
      <trkpt lat="48.58263" lon="1.54125">
        <ele>141</ele>
        <time>2022-01-18T11:16:24Z</time>
      </trkpt>
      <trkpt lat="48.58291" lon="1.54222">
        <ele>140</ele>
        <time>2022-01-18T11:16:37Z</time>
      </trkpt>
      <trkpt lat="48.58299" lon="1.54308">
        <ele>140</ele>
        <time>2022-01-18T11:16:47Z</time>
      </trkpt>
      <trkpt lat="48.58298" lon="1.54384">
        <ele>139</ele>
        <time>2022-01-18T11:16:56Z</time>
      </trkpt>
      <trkpt lat="48.5828" lon="1.54617">
        <ele>139</ele>
        <time>2022-01-18T11:17:23Z</time>
      </trkpt>
      <trkpt lat="48.58249" lon="1.54802">
        <ele>141</ele>
        <time>2022-01-18T11:17:46Z</time>
      </trkpt>
      <trkpt lat="48.58241" lon="1.55022">
        <ele>143</ele>
        <time>2022-01-18T11:18:12Z</time>
      </trkpt>
      <trkpt lat="48.58242" lon="1.55049">
        <ele>142</ele>
        <time>2022-01-18T11:18:15Z</time>
      </trkpt>
      <trkpt lat="48.58253" lon="1.55089">
        <ele>141</ele>
        <time>2022-01-18T11:18:20Z</time>
      </trkpt>
      <trkpt lat="48.58345" lon="1.55289">
        <ele>138</ele>
        <time>2022-01-18T11:18:49Z</time>
      </trkpt>
      <trkpt lat="48.58384" lon="1.55382">
        <ele>137</ele>
        <time>2022-01-18T11:19:02Z</time>
      </trkpt>
      <trkpt lat="48.58425" lon="1.55562">
        <ele>138</ele>
        <time>2022-01-18T11:19:24Z</time>
      </trkpt>
      <trkpt lat="48.58441" lon="1.55611">
        <ele>139</ele>
        <time>2022-01-18T11:19:30Z</time>
      </trkpt>
      <trkpt lat="48.58467" lon="1.55675">
        <ele>139</ele>
        <time>2022-01-18T11:19:39Z</time>
      </trkpt>
      <trkpt lat="48.58559" lon="1.55848">
        <ele>138</ele>
        <time>2022-01-18T11:20:05Z</time>
      </trkpt>
      <trkpt lat="48.58613" lon="1.55967">
        <ele>136</ele>
        <time>2022-01-18T11:20:22Z</time>
      </trkpt>
      <trkpt lat="48.58653" lon="1.56045">
        <ele>136</ele>
        <time>2022-01-18T11:20:34Z</time>
      </trkpt>
      <trkpt lat="48.58722" lon="1.5616">
        <ele>135</ele>
        <time>2022-01-18T11:20:52Z</time>
      </trkpt>
      <trkpt lat="48.58734" lon="1.56183">
        <ele>135</ele>
        <time>2022-01-18T11:20:56Z</time>
      </trkpt>
      <trkpt lat="48.58736" lon="1.56197">
        <ele>134</ele>
        <time>2022-01-18T11:20:57Z</time>
      </trkpt>
      <trkpt lat="48.58732" lon="1.56279">
        <ele>132</ele>
        <time>2022-01-18T11:21:07Z</time>
      </trkpt>
      <trkpt lat="48.58719" lon="1.56375">
        <ele>129</ele>
        <time>2022-01-18T11:21:19Z</time>
      </trkpt>
      <trkpt lat="48.58715" lon="1.56418">
        <ele>128</ele>
        <time>2022-01-18T11:21:24Z</time>
      </trkpt>
      <trkpt lat="48.58713" lon="1.56475">
        <ele>128</ele>
        <time>2022-01-18T11:21:31Z</time>
      </trkpt>
      <trkpt lat="48.58714" lon="1.56538">
        <ele>127</ele>
        <time>2022-01-18T11:21:38Z</time>
      </trkpt>
      <trkpt lat="48.58721" lon="1.56594">
        <ele>125</ele>
        <time>2022-01-18T11:21:45Z</time>
      </trkpt>
      <trkpt lat="48.5873" lon="1.56601">
        <ele>125</ele>
        <time>2022-01-18T11:21:46Z</time>
      </trkpt>
      <trkpt lat="48.58812" lon="1.56697">
        <ele>116</ele>
        <time>2022-01-18T11:22:05Z</time>
      </trkpt>
      <trkpt lat="48.5883" lon="1.56712">
        <ele>113</ele>
        <time>2022-01-18T11:22:09Z</time>
      </trkpt>
      <trkpt lat="48.58845" lon="1.5672">
        <ele>111</ele>
        <time>2022-01-18T11:22:11Z</time>
      </trkpt>
      <trkpt lat="48.58863" lon="1.56726">
        <ele>109</ele>
        <time>2022-01-18T11:22:15Z</time>
      </trkpt>
      <trkpt lat="48.58927" lon="1.56712">
        <ele>104</ele>
        <time>2022-01-18T11:22:26Z</time>
      </trkpt>
      <trkpt lat="48.58961" lon="1.56714">
        <ele>103</ele>
        <time>2022-01-18T11:22:32Z</time>
      </trkpt>
      <trkpt lat="48.58998" lon="1.56733">
        <ele>102</ele>
        <time>2022-01-18T11:22:39Z</time>
      </trkpt>
      <trkpt lat="48.59027" lon="1.56754">
        <ele>102</ele>
        <time>2022-01-18T11:22:45Z</time>
      </trkpt>
      <trkpt lat="48.58976" lon="1.5683">
        <ele>102</ele>
        <time>2022-01-18T11:22:58Z</time>
      </trkpt>
      <trkpt lat="48.58921" lon="1.56901">
        <ele>102</ele>
        <time>2022-01-18T11:23:10Z</time>
      </trkpt>
      <trkpt lat="48.58902" lon="1.56953">
        <ele>102</ele>
        <time>2022-01-18T11:23:17Z</time>
      </trkpt>
      <trkpt lat="48.58834" lon="1.57092">
        <ele>100</ele>
        <time>2022-01-18T11:23:38Z</time>
      </trkpt>
      <trkpt lat="48.58831" lon="1.57106">
        <ele>100</ele>
        <time>2022-01-18T11:23:40Z</time>
      </trkpt>
      <trkpt lat="48.58828" lon="1.57105">
        <ele>101</ele>
        <time>2022-01-18T11:23:40Z</time>
      </trkpt>
      <trkpt lat="48.58823" lon="1.57107">
        <ele>101</ele>
        <time>2022-01-18T11:23:41Z</time>
      </trkpt>
      <trkpt lat="48.58819" lon="1.57114">
        <ele>101</ele>
        <time>2022-01-18T11:23:42Z</time>
      </trkpt>
      <trkpt lat="48.58819" lon="1.57122">
        <ele>101</ele>
        <time>2022-01-18T11:23:43Z</time>
      </trkpt>
      <trkpt lat="48.58812" lon="1.57128">
        <ele>101</ele>
        <time>2022-01-18T11:23:44Z</time>
      </trkpt>
      <trkpt lat="48.58773" lon="1.57189">
        <ele>102</ele>
        <time>2022-01-18T11:23:54Z</time>
      </trkpt>
      <trkpt lat="48.58759" lon="1.57216">
        <ele>102</ele>
        <time>2022-01-18T11:23:59Z</time>
      </trkpt>
      <trkpt lat="48.58731" lon="1.57299">
        <ele>103</ele>
        <time>2022-01-18T11:24:09Z</time>
      </trkpt>
      <trkpt lat="48.58719" lon="1.57325">
        <ele>103</ele>
        <time>2022-01-18T11:24:13Z</time>
      </trkpt>
      <trkpt lat="48.58676" lon="1.57403">
        <ele>104</ele>
        <time>2022-01-18T11:24:25Z</time>
      </trkpt>
      <trkpt lat="48.58647" lon="1.57464">
        <ele>105</ele>
        <time>2022-01-18T11:24:34Z</time>
      </trkpt>
      <trkpt lat="48.58606" lon="1.57592">
        <ele>103</ele>
        <time>2022-01-18T11:24:51Z</time>
      </trkpt>
      <trkpt lat="48.58593" lon="1.57623">
        <ele>103</ele>
        <time>2022-01-18T11:24:55Z</time>
      </trkpt>
      <trkpt lat="48.58568" lon="1.5767">
        <ele>103</ele>
        <time>2022-01-18T11:25:02Z</time>
      </trkpt>
      <trkpt lat="48.58551" lon="1.57696">
        <ele>105</ele>
        <time>2022-01-18T11:25:06Z</time>
      </trkpt>
      <trkpt lat="48.58516" lon="1.5765">
        <ele>107</ele>
        <time>2022-01-18T11:25:15Z</time>
      </trkpt>
      <trkpt lat="48.58446" lon="1.57581">
        <ele>109</ele>
        <time>2022-01-18T11:25:30Z</time>
      </trkpt>
      <trkpt lat="48.58414" lon="1.57694">
        <ele>115</ele>
        <time>2022-01-18T11:25:44Z</time>
      </trkpt>
      <trkpt lat="48.58378" lon="1.57803">
        <ele>114</ele>
        <time>2022-01-18T11:25:58Z</time>
      </trkpt>
      <trkpt lat="48.58362" lon="1.57826">
        <ele>114</ele>
        <time>2022-01-18T11:26:02Z</time>
      </trkpt>
      <trkpt lat="48.58315" lon="1.57854">
        <ele>114</ele>
        <time>2022-01-18T11:26:11Z</time>
      </trkpt>
      <trkpt lat="48.58234" lon="1.57891">
        <ele>117</ele>
        <time>2022-01-18T11:26:26Z</time>
      </trkpt>
      <trkpt lat="48.58031" lon="1.57933">
        <ele>124</ele>
        <time>2022-01-18T11:27:03Z</time>
      </trkpt>
      <trkpt lat="48.5795" lon="1.57965">
        <ele>116</ele>
        <time>2022-01-18T11:27:18Z</time>
      </trkpt>
      <trkpt lat="48.57712" lon="1.57982">
        <ele>116</ele>
        <time>2022-01-18T11:28:00Z</time>
      </trkpt>
      <trkpt lat="48.57474" lon="1.58004">
        <ele>116</ele>
        <time>2022-01-18T11:28:43Z</time>
      </trkpt>
      <trkpt lat="48.57339" lon="1.58011">
        <ele>116</ele>
        <time>2022-01-18T11:29:07Z</time>
      </trkpt>
      <trkpt lat="48.57143" lon="1.58046">
        <ele>110</ele>
        <time>2022-01-18T11:29:42Z</time>
      </trkpt>
      <trkpt lat="48.57091" lon="1.58058">
        <ele>108</ele>
        <time>2022-01-18T11:29:51Z</time>
      </trkpt>
      <trkpt lat="48.57041" lon="1.58079">
        <ele>112</ele>
        <time>2022-01-18T11:30:00Z</time>
      </trkpt>
      <trkpt lat="48.5697" lon="1.58113">
        <ele>113</ele>
        <time>2022-01-18T11:30:14Z</time>
      </trkpt>
      <trkpt lat="48.56941" lon="1.58145">
        <ele>108</ele>
        <time>2022-01-18T11:30:20Z</time>
      </trkpt>
      <trkpt lat="48.56907" lon="1.58196">
        <ele>103</ele>
        <time>2022-01-18T11:30:28Z</time>
      </trkpt>
      <trkpt lat="48.56872" lon="1.58253">
        <ele>101</ele>
        <time>2022-01-18T11:30:38Z</time>
      </trkpt>
      <trkpt lat="48.56841" lon="1.58291">
        <ele>102</ele>
        <time>2022-01-18T11:30:45Z</time>
      </trkpt>
      <trkpt lat="48.56772" lon="1.5836">
        <ele>103</ele>
        <time>2022-01-18T11:30:59Z</time>
      </trkpt>
      <trkpt lat="48.56733" lon="1.58382">
        <ele>103</ele>
        <time>2022-01-18T11:31:07Z</time>
      </trkpt>
      <trkpt lat="48.56705" lon="1.58392">
        <ele>104</ele>
        <time>2022-01-18T11:31:12Z</time>
      </trkpt>
      <trkpt lat="48.56647" lon="1.58411">
        <ele>105</ele>
        <time>2022-01-18T11:31:23Z</time>
      </trkpt>
      <trkpt lat="48.56588" lon="1.58424">
        <ele>106</ele>
        <time>2022-01-18T11:31:33Z</time>
      </trkpt>
      <trkpt lat="48.56517" lon="1.58427">
        <ele>106</ele>
        <time>2022-01-18T11:31:46Z</time>
      </trkpt>
      <trkpt lat="48.5642" lon="1.58425">
        <ele>105</ele>
        <time>2022-01-18T11:32:03Z</time>
      </trkpt>
      <trkpt lat="48.56408" lon="1.58412">
        <ele>105</ele>
        <time>2022-01-18T11:32:06Z</time>
      </trkpt>
      <trkpt lat="48.56395" lon="1.58391">
        <ele>105</ele>
        <time>2022-01-18T11:32:09Z</time>
      </trkpt>
      <trkpt lat="48.56384" lon="1.58366">
        <ele>106</ele>
        <time>2022-01-18T11:32:13Z</time>
      </trkpt>
      <trkpt lat="48.56357" lon="1.5832">
        <ele>107</ele>
        <time>2022-01-18T11:32:20Z</time>
      </trkpt>
      <trkpt lat="48.56304" lon="1.58277">
        <ele>111</ele>
        <time>2022-01-18T11:32:31Z</time>
      </trkpt>
      <trkpt lat="48.56243" lon="1.58234">
        <ele>114</ele>
        <time>2022-01-18T11:32:42Z</time>
      </trkpt>
      <trkpt lat="48.56146" lon="1.58218">
        <ele>118</ele>
        <time>2022-01-18T11:33:00Z</time>
      </trkpt>
      <trkpt lat="48.56087" lon="1.58204">
        <ele>118</ele>
        <time>2022-01-18T11:33:10Z</time>
      </trkpt>
      <trkpt lat="48.55874" lon="1.58211">
        <ele>116</ele>
        <time>2022-01-18T11:33:48Z</time>
      </trkpt>
      <trkpt lat="48.5581" lon="1.58195">
        <ele>115</ele>
        <time>2022-01-18T11:34:00Z</time>
      </trkpt>
      <trkpt lat="48.55772" lon="1.58182">
        <ele>113</ele>
        <time>2022-01-18T11:34:07Z</time>
      </trkpt>
      <trkpt lat="48.55725" lon="1.58162">
        <ele>113</ele>
        <time>2022-01-18T11:34:16Z</time>
      </trkpt>
      <trkpt lat="48.5559" lon="1.58099">
        <ele>118</ele>
        <time>2022-01-18T11:34:41Z</time>
      </trkpt>
      <trkpt lat="48.55562" lon="1.58087">
        <ele>117</ele>
        <time>2022-01-18T11:34:46Z</time>
      </trkpt>
      <trkpt lat="48.55515" lon="1.58074">
        <ele>116</ele>
        <time>2022-01-18T11:34:54Z</time>
      </trkpt>
      <trkpt lat="48.55462" lon="1.58069">
        <ele>117</ele>
        <time>2022-01-18T11:35:04Z</time>
      </trkpt>
      <trkpt lat="48.55378" lon="1.58076">
        <ele>115</ele>
        <time>2022-01-18T11:35:19Z</time>
      </trkpt>
      <trkpt lat="48.55305" lon="1.58073">
        <ele>115</ele>
        <time>2022-01-18T11:35:32Z</time>
      </trkpt>
      <trkpt lat="48.55269" lon="1.58074">
        <ele>114</ele>
        <time>2022-01-18T11:35:38Z</time>
      </trkpt>
      <trkpt lat="48.55229" lon="1.5808">
        <ele>114</ele>
        <time>2022-01-18T11:35:45Z</time>
      </trkpt>
      <trkpt lat="48.55169" lon="1.58096">
        <ele>115</ele>
        <time>2022-01-18T11:35:56Z</time>
      </trkpt>
      <trkpt lat="48.5515" lon="1.58109">
        <ele>115</ele>
        <time>2022-01-18T11:36:00Z</time>
      </trkpt>
      <trkpt lat="48.55132" lon="1.58125">
        <ele>113</ele>
        <time>2022-01-18T11:36:04Z</time>
      </trkpt>
      <trkpt lat="48.55103" lon="1.58159">
        <ele>110</ele>
        <time>2022-01-18T11:36:10Z</time>
      </trkpt>
      <trkpt lat="48.55084" lon="1.58188">
        <ele>108</ele>
        <time>2022-01-18T11:36:15Z</time>
      </trkpt>
      <trkpt lat="48.55047" lon="1.58295">
        <ele>107</ele>
        <time>2022-01-18T11:36:29Z</time>
      </trkpt>
      <trkpt lat="48.55036" lon="1.58317">
        <ele>107</ele>
        <time>2022-01-18T11:36:32Z</time>
      </trkpt>
      <trkpt lat="48.55022" lon="1.58337">
        <ele>106</ele>
        <time>2022-01-18T11:36:36Z</time>
      </trkpt>
      <trkpt lat="48.54991" lon="1.5836">
        <ele>107</ele>
        <time>2022-01-18T11:36:42Z</time>
      </trkpt>
      <trkpt lat="48.54932" lon="1.58387">
        <ele>110</ele>
        <time>2022-01-18T11:36:53Z</time>
      </trkpt>
      <trkpt lat="48.54866" lon="1.58408">
        <ele>109</ele>
        <time>2022-01-18T11:37:05Z</time>
      </trkpt>
      <trkpt lat="48.54849" lon="1.58405">
        <ele>109</ele>
        <time>2022-01-18T11:37:08Z</time>
      </trkpt>
      <trkpt lat="48.54793" lon="1.58367">
        <ele>109</ele>
        <time>2022-01-18T11:37:19Z</time>
      </trkpt>
      <trkpt lat="48.54774" lon="1.58361">
        <ele>109</ele>
        <time>2022-01-18T11:37:22Z</time>
      </trkpt>
      <trkpt lat="48.54755" lon="1.58355">
        <ele>110</ele>
        <time>2022-01-18T11:37:26Z</time>
      </trkpt>
      <trkpt lat="48.5474" lon="1.58357">
        <ele>109</ele>
        <time>2022-01-18T11:37:29Z</time>
      </trkpt>
      <trkpt lat="48.54755" lon="1.58355">
        <ele>110</ele>
        <time>2022-01-18T11:37:31Z</time>
      </trkpt>
      <trkpt lat="48.54753" lon="1.58371">
        <ele>110</ele>
        <time>2022-01-18T11:37:33Z</time>
      </trkpt>
      <trkpt lat="48.54744" lon="1.58389">
        <ele>109</ele>
        <time>2022-01-18T11:37:36Z</time>
      </trkpt>
      <trkpt lat="48.54741" lon="1.58402">
        <ele>109</ele>
        <time>2022-01-18T11:37:37Z</time>
      </trkpt>
      <trkpt lat="48.54736" lon="1.58448">
        <ele>108</ele>
        <time>2022-01-18T11:37:43Z</time>
      </trkpt>
      <trkpt lat="48.54707" lon="1.58549">
        <ele>106</ele>
        <time>2022-01-18T11:37:56Z</time>
      </trkpt>
      <trkpt lat="48.5465" lon="1.58565">
        <ele>107</ele>
        <time>2022-01-18T11:38:06Z</time>
      </trkpt>
      <trkpt lat="48.54622" lon="1.58569">
        <ele>107</ele>
        <time>2022-01-18T11:38:11Z</time>
      </trkpt>
      <trkpt lat="48.54593" lon="1.58581">
        <ele>108</ele>
        <time>2022-01-18T11:38:17Z</time>
      </trkpt>
      <trkpt lat="48.54553" lon="1.58604">
        <ele>108</ele>
        <time>2022-01-18T11:38:24Z</time>
      </trkpt>
      <trkpt lat="48.54551" lon="1.58611">
        <ele>108</ele>
        <time>2022-01-18T11:38:25Z</time>
      </trkpt>
      <trkpt lat="48.54552" lon="1.58618">
        <ele>107</ele>
        <time>2022-01-18T11:38:26Z</time>
      </trkpt>
      <trkpt lat="48.54558" lon="1.58622">
        <ele>107</ele>
        <time>2022-01-18T11:38:27Z</time>
      </trkpt>
      <trkpt lat="48.54639" lon="1.58653">
        <ele>106</ele>
        <time>2022-01-18T11:38:42Z</time>
      </trkpt>
      <trkpt lat="48.54779" lon="1.587">
        <ele>105</ele>
        <time>2022-01-18T11:39:07Z</time>
      </trkpt>
      <trkpt lat="48.54787" lon="1.58701">
        <ele>105</ele>
        <time>2022-01-18T11:39:09Z</time>
      </trkpt>
      <trkpt lat="48.54797" lon="1.58695">
        <ele>105</ele>
        <time>2022-01-18T11:39:11Z</time>
      </trkpt>
      <trkpt lat="48.54814" lon="1.58712">
        <ele>105</ele>
        <time>2022-01-18T11:39:14Z</time>
      </trkpt>
      <trkpt lat="48.54861" lon="1.5873">
        <ele>105</ele>
        <time>2022-01-18T11:39:23Z</time>
      </trkpt>
      <trkpt lat="48.54889" lon="1.58744">
        <ele>105</ele>
        <time>2022-01-18T11:39:28Z</time>
      </trkpt>
      <trkpt lat="48.54987" lon="1.5881">
        <ele>106</ele>
        <time>2022-01-18T11:39:47Z</time>
      </trkpt>
      <trkpt lat="48.55035" lon="1.58825">
        <ele>105</ele>
        <time>2022-01-18T11:39:56Z</time>
      </trkpt>
      <trkpt lat="48.55086" lon="1.58834">
        <ele>105</ele>
        <time>2022-01-18T11:40:05Z</time>
      </trkpt>
      <trkpt lat="48.55127" lon="1.58836">
        <ele>105</ele>
        <time>2022-01-18T11:40:13Z</time>
      </trkpt>
      <trkpt lat="48.55184" lon="1.5883">
        <ele>104</ele>
        <time>2022-01-18T11:40:23Z</time>
      </trkpt>
      <trkpt lat="48.55185" lon="1.58834">
        <ele>104</ele>
        <time>2022-01-18T11:40:23Z</time>
      </trkpt>
      <trkpt lat="48.55187" lon="1.58834">
        <ele>105</ele>
        <time>2022-01-18T11:40:24Z</time>
      </trkpt>
      <trkpt lat="48.55189" lon="1.58832">
        <ele>105</ele>
        <time>2022-01-18T11:40:24Z</time>
      </trkpt>
      <trkpt lat="48.55189" lon="1.58828">
        <ele>105</ele>
        <time>2022-01-18T11:40:24Z</time>
      </trkpt>
      <trkpt lat="48.55288" lon="1.5882">
        <ele>106</ele>
        <time>2022-01-18T11:40:42Z</time>
      </trkpt>
      <trkpt lat="48.55319" lon="1.5882">
        <ele>107</ele>
        <time>2022-01-18T11:40:48Z</time>
      </trkpt>
      <trkpt lat="48.55525" lon="1.5885">
        <ele>106</ele>
        <time>2022-01-18T11:41:24Z</time>
      </trkpt>
      <trkpt lat="48.55584" lon="1.58861">
        <ele>106</ele>
        <time>2022-01-18T11:41:35Z</time>
      </trkpt>
      <trkpt lat="48.55637" lon="1.58874">
        <ele>106</ele>
        <time>2022-01-18T11:41:45Z</time>
      </trkpt>
      <trkpt lat="48.55795" lon="1.58932">
        <ele>106</ele>
        <time>2022-01-18T11:42:13Z</time>
      </trkpt>
      <trkpt lat="48.559" lon="1.58977">
        <ele>105</ele>
        <time>2022-01-18T11:42:33Z</time>
      </trkpt>
      <trkpt lat="48.56364" lon="1.59159">
        <ele>106</ele>
        <time>2022-01-18T11:43:58Z</time>
      </trkpt>
      <trkpt lat="48.56484" lon="1.59207">
        <ele>105</ele>
        <time>2022-01-18T11:44:20Z</time>
      </trkpt>
      <trkpt lat="48.56665" lon="1.59287">
        <ele>110</ele>
        <time>2022-01-18T11:44:54Z</time>
      </trkpt>
      <trkpt lat="48.56713" lon="1.59303">
        <ele>110</ele>
        <time>2022-01-18T11:45:03Z</time>
      </trkpt>
      <trkpt lat="48.56745" lon="1.59305">
        <ele>110</ele>
        <time>2022-01-18T11:45:08Z</time>
      </trkpt>
      <trkpt lat="48.56814" lon="1.59299">
        <ele>107</ele>
        <time>2022-01-18T11:45:21Z</time>
      </trkpt>
      <trkpt lat="48.56829" lon="1.59307">
        <ele>106</ele>
        <time>2022-01-18T11:45:23Z</time>
      </trkpt>
      <trkpt lat="48.56835" lon="1.593">
        <ele>106</ele>
        <time>2022-01-18T11:45:25Z</time>
      </trkpt>
      <trkpt lat="48.56842" lon="1.59294">
        <ele>105</ele>
        <time>2022-01-18T11:45:26Z</time>
      </trkpt>
      <trkpt lat="48.56856" lon="1.5929">
        <ele>105</ele>
        <time>2022-01-18T11:45:29Z</time>
      </trkpt>
      <trkpt lat="48.5691" lon="1.59287">
        <ele>104</ele>
        <time>2022-01-18T11:45:38Z</time>
      </trkpt>
      <trkpt lat="48.56953" lon="1.5929">
        <ele>105</ele>
        <time>2022-01-18T11:45:46Z</time>
      </trkpt>
      <trkpt lat="48.57166" lon="1.59329">
        <ele>108</ele>
        <time>2022-01-18T11:46:24Z</time>
      </trkpt>
      <trkpt lat="48.57441" lon="1.59344">
        <ele>110</ele>
        <time>2022-01-18T11:47:13Z</time>
      </trkpt>
      <trkpt lat="48.57577" lon="1.59348">
        <ele>111</ele>
        <time>2022-01-18T11:47:37Z</time>
      </trkpt>
      <trkpt lat="48.57597" lon="1.59346">
        <ele>111</ele>
        <time>2022-01-18T11:47:41Z</time>
      </trkpt>
      <trkpt lat="48.57613" lon="1.59341">
        <ele>111</ele>
        <time>2022-01-18T11:47:44Z</time>
      </trkpt>
      <trkpt lat="48.57712" lon="1.59291">
        <ele>109</ele>
        <time>2022-01-18T11:48:02Z</time>
      </trkpt>
      <trkpt lat="48.57747" lon="1.59275">
        <ele>109</ele>
        <time>2022-01-18T11:48:09Z</time>
      </trkpt>
      <trkpt lat="48.57893" lon="1.59227">
        <ele>107</ele>
        <time>2022-01-18T11:48:35Z</time>
      </trkpt>
      <trkpt lat="48.57931" lon="1.5921">
        <ele>106</ele>
        <time>2022-01-18T11:48:43Z</time>
      </trkpt>
      <trkpt lat="48.58089" lon="1.59122">
        <ele>105</ele>
        <time>2022-01-18T11:49:12Z</time>
      </trkpt>
      <trkpt lat="48.58289" lon="1.5902">
        <ele>107</ele>
        <time>2022-01-18T11:49:50Z</time>
      </trkpt>
      <trkpt lat="48.58322" lon="1.58995">
        <ele>107</ele>
        <time>2022-01-18T11:49:57Z</time>
      </trkpt>
      <trkpt lat="48.58327" lon="1.58991">
        <ele>108</ele>
        <time>2022-01-18T11:49:58Z</time>
      </trkpt>
      <trkpt lat="48.58365" lon="1.58964">
        <ele>111</ele>
        <time>2022-01-18T11:50:05Z</time>
      </trkpt>
      <trkpt lat="48.58431" lon="1.58907">
        <ele>112</ele>
        <time>2022-01-18T11:50:19Z</time>
      </trkpt>
      <trkpt lat="48.5857" lon="1.58752">
        <ele>112</ele>
        <time>2022-01-18T11:50:49Z</time>
      </trkpt>
      <trkpt lat="48.58614" lon="1.58711">
        <ele>113</ele>
        <time>2022-01-18T11:50:59Z</time>
      </trkpt>
      <trkpt lat="48.58621" lon="1.58707">
        <ele>114</ele>
        <time>2022-01-18T11:51:00Z</time>
      </trkpt>
      <trkpt lat="48.58624" lon="1.58716">
        <ele>114</ele>
        <time>2022-01-18T11:51:01Z</time>
      </trkpt>
      <trkpt lat="48.58628" lon="1.58718">
        <ele>114</ele>
        <time>2022-01-18T11:51:02Z</time>
      </trkpt>
      <trkpt lat="48.58632" lon="1.58716">
        <ele>114</ele>
        <time>2022-01-18T11:51:03Z</time>
      </trkpt>
      <trkpt lat="48.58635" lon="1.58711">
        <ele>114</ele>
        <time>2022-01-18T11:51:03Z</time>
      </trkpt>
      <trkpt lat="48.58636" lon="1.58706">
        <ele>114</ele>
        <time>2022-01-18T11:51:04Z</time>
      </trkpt>
      <trkpt lat="48.58633" lon="1.58698">
        <ele>114</ele>
        <time>2022-01-18T11:51:05Z</time>
      </trkpt>
      <trkpt lat="48.58636" lon="1.58682">
        <ele>113</ele>
        <time>2022-01-18T11:51:07Z</time>
      </trkpt>
      <trkpt lat="48.5871" lon="1.58508">
        <ele>109</ele>
        <time>2022-01-18T11:51:31Z</time>
      </trkpt>
      <trkpt lat="48.58716" lon="1.58496">
        <ele>109</ele>
        <time>2022-01-18T11:51:33Z</time>
      </trkpt>
      <trkpt lat="48.58739" lon="1.58443">
        <ele>107</ele>
        <time>2022-01-18T11:51:41Z</time>
      </trkpt>
      <trkpt lat="48.58742" lon="1.58431">
        <ele>107</ele>
        <time>2022-01-18T11:51:42Z</time>
      </trkpt>
      <trkpt lat="48.58838" lon="1.58201">
        <ele>103</ele>
        <time>2022-01-18T11:52:14Z</time>
      </trkpt>
      <trkpt lat="48.5885" lon="1.58179">
        <ele>103</ele>
        <time>2022-01-18T11:52:17Z</time>
      </trkpt>
      <trkpt lat="48.58949" lon="1.57943">
        <ele>102</ele>
        <time>2022-01-18T11:52:50Z</time>
      </trkpt>
      <trkpt lat="48.5894" lon="1.57899">
        <ele>102</ele>
        <time>2022-01-18T11:52:56Z</time>
      </trkpt>
      <trkpt lat="48.58924" lon="1.57839">
        <ele>103</ele>
        <time>2022-01-18T11:53:03Z</time>
      </trkpt>
      <trkpt lat="48.58919" lon="1.57824">
        <ele>103</ele>
        <time>2022-01-18T11:53:05Z</time>
      </trkpt>
      <trkpt lat="48.58911" lon="1.57811">
        <ele>103</ele>
        <time>2022-01-18T11:53:07Z</time>
      </trkpt>
      <trkpt lat="48.58903" lon="1.578">
        <ele>103</ele>
        <time>2022-01-18T11:53:09Z</time>
      </trkpt>
      <trkpt lat="48.58885" lon="1.57785">
        <ele>103</ele>
        <time>2022-01-18T11:53:13Z</time>
      </trkpt>
      <trkpt lat="48.58867" lon="1.57779">
        <ele>103</ele>
        <time>2022-01-18T11:53:16Z</time>
      </trkpt>
      <trkpt lat="48.58799" lon="1.5779">
        <ele>103</ele>
        <time>2022-01-18T11:53:28Z</time>
      </trkpt>
      <trkpt lat="48.58776" lon="1.57732">
        <ele>103</ele>
        <time>2022-01-18T11:53:36Z</time>
      </trkpt>
      <trkpt lat="48.58779" lon="1.57655">
        <ele>102</ele>
        <time>2022-01-18T11:53:46Z</time>
      </trkpt>
      <trkpt lat="48.58798" lon="1.57619">
        <ele>102</ele>
        <time>2022-01-18T11:53:51Z</time>
      </trkpt>
      <trkpt lat="48.58836" lon="1.57561">
        <ele>101</ele>
        <time>2022-01-18T11:54:01Z</time>
      </trkpt>
      <trkpt lat="48.5884" lon="1.57548">
        <ele>101</ele>
        <time>2022-01-18T11:54:02Z</time>
      </trkpt>
      <trkpt lat="48.58856" lon="1.57477">
        <ele>101</ele>
        <time>2022-01-18T11:54:11Z</time>
      </trkpt>
      <trkpt lat="48.58869" lon="1.57443">
        <ele>102</ele>
        <time>2022-01-18T11:54:16Z</time>
      </trkpt>
    </trkseg>
  </trk>
</gpx>